<?xml version="1.0" encoding="UTF-8" standalone="no" ?>
<gpx xmlns="http://www.topografix.com/GPX/1/1" xmlns:xsi="http://www.w3.org/2001/XMLSchema-instance" xsi:schemaLocation="http://www.topografix.com/GPX/1/1 http://www.topografix.com/GPX/1/1/gpx.xsd" version="1.1" creator="VisuGPX - https://www.visugpx.com">
  <metadata>
    <name>La Jas _Col de la Bohémienne_Le Devès_Aulan</name>
  </metadata>
  <trk>
    <name><![CDATA[2020-03-15 15:27:31]]></name>
    <trkseg>
      <trkpt lat="44.23488" lon="5.37728">
        <ele>1076.69</ele>
        <time>2020-03-15T08:37:44Z</time>
      </trkpt>
      <trkpt lat="44.23513" lon="5.37701">
        <ele>1076.69</ele>
        <time>2020-03-15T08:37:45Z</time>
      </trkpt>
      <trkpt lat="44.23538" lon="5.3772">
        <ele>1079.41</ele>
        <time>2020-03-15T08:37:49Z</time>
      </trkpt>
      <trkpt lat="44.23551" lon="5.37747">
        <ele>1079.74</ele>
        <time>2020-03-15T08:38:31Z</time>
      </trkpt>
      <trkpt lat="44.23559" lon="5.37768">
        <ele>1078.38</ele>
        <time>2020-03-15T08:38:35Z</time>
      </trkpt>
      <trkpt lat="44.2358" lon="5.37799">
        <ele>1078.08</ele>
        <time>2020-03-15T08:38:37Z</time>
      </trkpt>
      <trkpt lat="44.23595" lon="5.37828">
        <ele>1077.68</ele>
        <time>2020-03-15T08:38:39Z</time>
      </trkpt>
      <trkpt lat="44.23601" lon="5.37846">
        <ele>1075.72</ele>
        <time>2020-03-15T08:38:55Z</time>
      </trkpt>
      <trkpt lat="44.23602" lon="5.37851">
        <ele>1074.98</ele>
        <time>2020-03-15T08:38:59Z</time>
      </trkpt>
      <trkpt lat="44.23613" lon="5.37872">
        <ele>1071.6</ele>
        <time>2020-03-15T08:39:15Z</time>
      </trkpt>
      <trkpt lat="44.23617" lon="5.3788">
        <ele>1071.01</ele>
        <time>2020-03-15T08:39:20Z</time>
      </trkpt>
      <trkpt lat="44.23618" lon="5.37883">
        <ele>1071.3</ele>
        <time>2020-03-15T08:39:22Z</time>
      </trkpt>
      <trkpt lat="44.2362" lon="5.37886">
        <ele>1070.28</ele>
        <time>2020-03-15T08:39:24Z</time>
      </trkpt>
      <trkpt lat="44.23627" lon="5.37898">
        <ele>1069.5</ele>
        <time>2020-03-15T08:39:33Z</time>
      </trkpt>
      <trkpt lat="44.23631" lon="5.37902">
        <ele>1068.68</ele>
        <time>2020-03-15T08:39:37Z</time>
      </trkpt>
      <trkpt lat="44.23649" lon="5.37928">
        <ele>1066.34</ele>
        <time>2020-03-15T08:39:57Z</time>
      </trkpt>
      <trkpt lat="44.23653" lon="5.37932">
        <ele>1065.91</ele>
        <time>2020-03-15T08:40:01Z</time>
      </trkpt>
      <trkpt lat="44.23664" lon="5.37947">
        <ele>1064.7</ele>
        <time>2020-03-15T08:40:14Z</time>
      </trkpt>
      <trkpt lat="44.23672" lon="5.37964">
        <ele>1065.69</ele>
        <time>2020-03-15T08:40:25Z</time>
      </trkpt>
      <trkpt lat="44.23681" lon="5.37996">
        <ele>1065.89</ele>
        <time>2020-03-15T08:40:46Z</time>
      </trkpt>
      <trkpt lat="44.2368" lon="5.38001">
        <ele>1065.56</ele>
        <time>2020-03-15T08:40:49Z</time>
      </trkpt>
      <trkpt lat="44.23679" lon="5.38008">
        <ele>1065.19</ele>
        <time>2020-03-15T08:40:53Z</time>
      </trkpt>
      <trkpt lat="44.23675" lon="5.38059">
        <ele>1065.03</ele>
        <time>2020-03-15T08:41:21Z</time>
      </trkpt>
      <trkpt lat="44.23653" lon="5.38102">
        <ele>1063.91</ele>
        <time>2020-03-15T08:41:49Z</time>
      </trkpt>
      <trkpt lat="44.23633" lon="5.38142">
        <ele>1063.44</ele>
        <time>2020-03-15T08:42:13Z</time>
      </trkpt>
      <trkpt lat="44.23623" lon="5.38177">
        <ele>1062.68</ele>
        <time>2020-03-15T08:42:34Z</time>
      </trkpt>
      <trkpt lat="44.2361" lon="5.3821">
        <ele>1062.82</ele>
        <time>2020-03-15T08:42:56Z</time>
      </trkpt>
      <trkpt lat="44.23594" lon="5.38256">
        <ele>1061.65</ele>
        <time>2020-03-15T08:43:24Z</time>
      </trkpt>
      <trkpt lat="44.23579" lon="5.38296">
        <ele>1061.04</ele>
        <time>2020-03-15T08:43:49Z</time>
      </trkpt>
      <trkpt lat="44.23563" lon="5.38335">
        <ele>1060.19</ele>
        <time>2020-03-15T08:44:13Z</time>
      </trkpt>
      <trkpt lat="44.23557" lon="5.38387">
        <ele>1058.72</ele>
        <time>2020-03-15T08:44:41Z</time>
      </trkpt>
      <trkpt lat="44.23563" lon="5.38452">
        <ele>1056.58</ele>
        <time>2020-03-15T08:45:17Z</time>
      </trkpt>
      <trkpt lat="44.23564" lon="5.38456">
        <ele>1056.07</ele>
        <time>2020-03-15T08:45:20Z</time>
      </trkpt>
      <trkpt lat="44.23576" lon="5.38514">
        <ele>1054.25</ele>
        <time>2020-03-15T08:45:54Z</time>
      </trkpt>
      <trkpt lat="44.23591" lon="5.38553">
        <ele>1051.46</ele>
        <time>2020-03-15T08:46:20Z</time>
      </trkpt>
      <trkpt lat="44.23608" lon="5.38591">
        <ele>1048.97</ele>
        <time>2020-03-15T08:46:44Z</time>
      </trkpt>
      <trkpt lat="44.23611" lon="5.38602">
        <ele>1047.6</ele>
        <time>2020-03-15T08:46:51Z</time>
      </trkpt>
      <trkpt lat="44.23614" lon="5.38619">
        <ele>1045.67</ele>
        <time>2020-03-15T08:47:03Z</time>
      </trkpt>
      <trkpt lat="44.23619" lon="5.38642">
        <ele>1044.42</ele>
        <time>2020-03-15T08:47:17Z</time>
      </trkpt>
      <trkpt lat="44.23624" lon="5.38676">
        <ele>1041.37</ele>
        <time>2020-03-15T08:47:39Z</time>
      </trkpt>
      <trkpt lat="44.23627" lon="5.38688">
        <ele>1038.33</ele>
        <time>2020-03-15T08:47:56Z</time>
      </trkpt>
      <trkpt lat="44.23625" lon="5.387">
        <ele>1039.43</ele>
        <time>2020-03-15T08:48:18Z</time>
      </trkpt>
      <trkpt lat="44.23624" lon="5.38708">
        <ele>1038.76</ele>
        <time>2020-03-15T08:48:22Z</time>
      </trkpt>
      <trkpt lat="44.23625" lon="5.38726">
        <ele>1037.55</ele>
        <time>2020-03-15T08:48:34Z</time>
      </trkpt>
      <trkpt lat="44.23621" lon="5.38739">
        <ele>1036.78</ele>
        <time>2020-03-15T08:48:42Z</time>
      </trkpt>
      <trkpt lat="44.23616" lon="5.3876">
        <ele>1033.55</ele>
        <time>2020-03-15T08:48:55Z</time>
      </trkpt>
      <trkpt lat="44.23607" lon="5.38786">
        <ele>1031.33</ele>
        <time>2020-03-15T08:49:12Z</time>
      </trkpt>
      <trkpt lat="44.23589" lon="5.38818">
        <ele>1029.22</ele>
        <time>2020-03-15T08:49:36Z</time>
      </trkpt>
      <trkpt lat="44.23588" lon="5.38819">
        <ele>1029.35</ele>
        <time>2020-03-15T08:49:37Z</time>
      </trkpt>
      <trkpt lat="44.23583" lon="5.3884">
        <ele>1026.02</ele>
        <time>2020-03-15T08:49:48Z</time>
      </trkpt>
      <trkpt lat="44.23569" lon="5.3887">
        <ele>1022.98</ele>
        <time>2020-03-15T08:50:07Z</time>
      </trkpt>
      <trkpt lat="44.23552" lon="5.38912">
        <ele>1020.23</ele>
        <time>2020-03-15T08:50:33Z</time>
      </trkpt>
      <trkpt lat="44.23547" lon="5.38931">
        <ele>1017.16</ele>
        <time>2020-03-15T08:50:45Z</time>
      </trkpt>
      <trkpt lat="44.23546" lon="5.38935">
        <ele>1016.72</ele>
        <time>2020-03-15T08:50:47Z</time>
      </trkpt>
      <trkpt lat="44.23536" lon="5.3895">
        <ele>1013.98</ele>
        <time>2020-03-15T08:51:00Z</time>
      </trkpt>
      <trkpt lat="44.23533" lon="5.38953">
        <ele>1013.19</ele>
        <time>2020-03-15T08:51:03Z</time>
      </trkpt>
      <trkpt lat="44.23522" lon="5.38961">
        <ele>1011.49</ele>
        <time>2020-03-15T08:51:13Z</time>
      </trkpt>
      <trkpt lat="44.2352" lon="5.38964">
        <ele>1011.3</ele>
        <time>2020-03-15T08:51:15Z</time>
      </trkpt>
      <trkpt lat="44.23518" lon="5.38972">
        <ele>1009.71</ele>
        <time>2020-03-15T08:51:20Z</time>
      </trkpt>
      <trkpt lat="44.23515" lon="5.38983">
        <ele>1008.09</ele>
        <time>2020-03-15T08:51:27Z</time>
      </trkpt>
      <trkpt lat="44.23512" lon="5.38992">
        <ele>1007.04</ele>
        <time>2020-03-15T08:51:33Z</time>
      </trkpt>
      <trkpt lat="44.23515" lon="5.39016">
        <ele>1003.8</ele>
        <time>2020-03-15T08:51:46Z</time>
      </trkpt>
      <trkpt lat="44.23516" lon="5.39025">
        <ele>1002.43</ele>
        <time>2020-03-15T08:51:51Z</time>
      </trkpt>
      <trkpt lat="44.23516" lon="5.39046">
        <ele>998.72</ele>
        <time>2020-03-15T08:52:03Z</time>
      </trkpt>
      <trkpt lat="44.23516" lon="5.39046">
        <ele>998.36</ele>
        <time>2020-03-15T08:52:04Z</time>
      </trkpt>
      <trkpt lat="44.23515" lon="5.39068">
        <ele>995.04</ele>
        <time>2020-03-15T08:52:20Z</time>
      </trkpt>
      <trkpt lat="44.23513" lon="5.39081">
        <ele>991.87</ele>
        <time>2020-03-15T08:52:36Z</time>
      </trkpt>
      <trkpt lat="44.23513" lon="5.39086">
        <ele>990.53</ele>
        <time>2020-03-15T08:52:41Z</time>
      </trkpt>
      <trkpt lat="44.23509" lon="5.39108">
        <ele>987.1</ele>
        <time>2020-03-15T08:52:53Z</time>
      </trkpt>
      <trkpt lat="44.23506" lon="5.39121">
        <ele>984.02</ele>
        <time>2020-03-15T08:53:03Z</time>
      </trkpt>
      <trkpt lat="44.23503" lon="5.39129">
        <ele>982.85</ele>
        <time>2020-03-15T08:53:08Z</time>
      </trkpt>
      <trkpt lat="44.23503" lon="5.39133">
        <ele>982.34</ele>
        <time>2020-03-15T08:53:11Z</time>
      </trkpt>
      <trkpt lat="44.23504" lon="5.39148">
        <ele>978.9</ele>
        <time>2020-03-15T08:53:23Z</time>
      </trkpt>
      <trkpt lat="44.23509" lon="5.3917">
        <ele>975.61</ele>
        <time>2020-03-15T08:53:35Z</time>
      </trkpt>
      <trkpt lat="44.23511" lon="5.39177">
        <ele>974.39</ele>
        <time>2020-03-15T08:53:41Z</time>
      </trkpt>
      <trkpt lat="44.23518" lon="5.39208">
        <ele>971.39</ele>
        <time>2020-03-15T08:53:53Z</time>
      </trkpt>
      <trkpt lat="44.23518" lon="5.39244">
        <ele>971.34</ele>
        <time>2020-03-15T08:54:22Z</time>
      </trkpt>
      <trkpt lat="44.23521" lon="5.39256">
        <ele>968.24</ele>
        <time>2020-03-15T08:54:44Z</time>
      </trkpt>
      <trkpt lat="44.23521" lon="5.39266">
        <ele>966.9</ele>
        <time>2020-03-15T08:54:51Z</time>
      </trkpt>
      <trkpt lat="44.23519" lon="5.39282">
        <ele>965.3</ele>
        <time>2020-03-15T08:55:01Z</time>
      </trkpt>
      <trkpt lat="44.23525" lon="5.393">
        <ele>961.76</ele>
        <time>2020-03-15T08:55:17Z</time>
      </trkpt>
      <trkpt lat="44.23535" lon="5.39306">
        <ele>958.93</ele>
        <time>2020-03-15T08:55:29Z</time>
      </trkpt>
      <trkpt lat="44.23546" lon="5.39309">
        <ele>956.66</ele>
        <time>2020-03-15T08:55:40Z</time>
      </trkpt>
      <trkpt lat="44.2355" lon="5.3931">
        <ele>956.4</ele>
        <time>2020-03-15T08:55:45Z</time>
      </trkpt>
      <trkpt lat="44.23554" lon="5.39313">
        <ele>956.5</ele>
        <time>2020-03-15T08:56:07Z</time>
      </trkpt>
      <trkpt lat="44.23555" lon="5.39314">
        <ele>956.62</ele>
        <time>2020-03-15T08:56:34Z</time>
      </trkpt>
      <trkpt lat="44.23557" lon="5.39315">
        <ele>956.81</ele>
        <time>2020-03-15T08:57:26Z</time>
      </trkpt>
      <trkpt lat="44.23557" lon="5.39315">
        <ele>956.87</ele>
        <time>2020-03-15T08:57:59Z</time>
      </trkpt>
      <trkpt lat="44.23558" lon="5.39317">
        <ele>957.09</ele>
        <time>2020-03-15T08:58:39Z</time>
      </trkpt>
      <trkpt lat="44.23562" lon="5.39315">
        <ele>957</ele>
        <time>2020-03-15T08:59:13Z</time>
      </trkpt>
      <trkpt lat="44.23564" lon="5.39312">
        <ele>957.5</ele>
        <time>2020-03-15T08:59:16Z</time>
      </trkpt>
      <trkpt lat="44.23575" lon="5.393">
        <ele>957.08</ele>
        <time>2020-03-15T08:59:33Z</time>
      </trkpt>
      <trkpt lat="44.23577" lon="5.39298">
        <ele>956.64</ele>
        <time>2020-03-15T08:59:36Z</time>
      </trkpt>
      <trkpt lat="44.2359" lon="5.39291">
        <ele>953.85</ele>
        <time>2020-03-15T08:59:48Z</time>
      </trkpt>
      <trkpt lat="44.23607" lon="5.39276">
        <ele>952.2</ele>
        <time>2020-03-15T09:00:11Z</time>
      </trkpt>
      <trkpt lat="44.23609" lon="5.39271">
        <ele>952.23</ele>
        <time>2020-03-15T09:00:39Z</time>
      </trkpt>
      <trkpt lat="44.23614" lon="5.39271">
        <ele>952.45</ele>
        <time>2020-03-15T09:00:43Z</time>
      </trkpt>
      <trkpt lat="44.23651" lon="5.39264">
        <ele>952.56</ele>
        <time>2020-03-15T09:01:11Z</time>
      </trkpt>
      <trkpt lat="44.23656" lon="5.39264">
        <ele>952.09</ele>
        <time>2020-03-15T09:01:15Z</time>
      </trkpt>
      <trkpt lat="44.23661" lon="5.39269">
        <ele>951.39</ele>
        <time>2020-03-15T09:01:22Z</time>
      </trkpt>
      <trkpt lat="44.23671" lon="5.39277">
        <ele>949.65</ele>
        <time>2020-03-15T09:01:31Z</time>
      </trkpt>
      <trkpt lat="44.23679" lon="5.39278">
        <ele>948.69</ele>
        <time>2020-03-15T09:01:39Z</time>
      </trkpt>
      <trkpt lat="44.23682" lon="5.39281">
        <ele>948.49</ele>
        <time>2020-03-15T09:01:42Z</time>
      </trkpt>
      <trkpt lat="44.2369" lon="5.39279">
        <ele>948.36</ele>
        <time>2020-03-15T09:01:50Z</time>
      </trkpt>
      <trkpt lat="44.23714" lon="5.39287">
        <ele>949.75</ele>
        <time>2020-03-15T09:02:10Z</time>
      </trkpt>
      <trkpt lat="44.23724" lon="5.39289">
        <ele>950.1</ele>
        <time>2020-03-15T09:02:19Z</time>
      </trkpt>
      <trkpt lat="44.23729" lon="5.39295">
        <ele>949.51</ele>
        <time>2020-03-15T09:02:25Z</time>
      </trkpt>
      <trkpt lat="44.23739" lon="5.39309">
        <ele>946.34</ele>
        <time>2020-03-15T09:02:39Z</time>
      </trkpt>
      <trkpt lat="44.23743" lon="5.39316">
        <ele>944.99</ele>
        <time>2020-03-15T09:02:45Z</time>
      </trkpt>
      <trkpt lat="44.23746" lon="5.39317">
        <ele>944.18</ele>
        <time>2020-03-15T09:02:49Z</time>
      </trkpt>
      <trkpt lat="44.23753" lon="5.39321">
        <ele>942.85</ele>
        <time>2020-03-15T09:03:05Z</time>
      </trkpt>
      <trkpt lat="44.23754" lon="5.39321">
        <ele>943.12</ele>
        <time>2020-03-15T09:03:21Z</time>
      </trkpt>
      <trkpt lat="44.23757" lon="5.39317">
        <ele>942.71</ele>
        <time>2020-03-15T09:03:26Z</time>
      </trkpt>
      <trkpt lat="44.23772" lon="5.39304">
        <ele>939.67</ele>
        <time>2020-03-15T09:03:40Z</time>
      </trkpt>
      <trkpt lat="44.23785" lon="5.39298">
        <ele>936.67</ele>
        <time>2020-03-15T09:03:51Z</time>
      </trkpt>
      <trkpt lat="44.23791" lon="5.39289">
        <ele>935.68</ele>
        <time>2020-03-15T09:03:57Z</time>
      </trkpt>
      <trkpt lat="44.23791" lon="5.39285">
        <ele>935.05</ele>
        <time>2020-03-15T09:03:59Z</time>
      </trkpt>
      <trkpt lat="44.23794" lon="5.3928">
        <ele>934.73</ele>
        <time>2020-03-15T09:04:03Z</time>
      </trkpt>
      <trkpt lat="44.238" lon="5.3927">
        <ele>934.36</ele>
        <time>2020-03-15T09:04:11Z</time>
      </trkpt>
      <trkpt lat="44.23806" lon="5.39254">
        <ele>932.69</ele>
        <time>2020-03-15T09:04:21Z</time>
      </trkpt>
      <trkpt lat="44.23808" lon="5.39247">
        <ele>931.79</ele>
        <time>2020-03-15T09:04:26Z</time>
      </trkpt>
      <trkpt lat="44.2381" lon="5.39235">
        <ele>929.63</ele>
        <time>2020-03-15T09:04:34Z</time>
      </trkpt>
      <trkpt lat="44.23809" lon="5.39223">
        <ele>928.3</ele>
        <time>2020-03-15T09:04:46Z</time>
      </trkpt>
      <trkpt lat="44.23805" lon="5.39201">
        <ele>924.96</ele>
        <time>2020-03-15T09:05:01Z</time>
      </trkpt>
      <trkpt lat="44.23803" lon="5.39196">
        <ele>924.12</ele>
        <time>2020-03-15T09:05:05Z</time>
      </trkpt>
      <trkpt lat="44.23804" lon="5.39175">
        <ele>921.87</ele>
        <time>2020-03-15T09:05:21Z</time>
      </trkpt>
      <trkpt lat="44.23805" lon="5.39172">
        <ele>922.19</ele>
        <time>2020-03-15T09:05:23Z</time>
      </trkpt>
      <trkpt lat="44.23802" lon="5.3916">
        <ele>921.62</ele>
        <time>2020-03-15T09:05:30Z</time>
      </trkpt>
      <trkpt lat="44.23792" lon="5.39132">
        <ele>918.35</ele>
        <time>2020-03-15T09:05:49Z</time>
      </trkpt>
      <trkpt lat="44.23792" lon="5.39129">
        <ele>917.82</ele>
        <time>2020-03-15T09:05:51Z</time>
      </trkpt>
      <trkpt lat="44.23797" lon="5.39117">
        <ele>914.22</ele>
        <time>2020-03-15T09:06:03Z</time>
      </trkpt>
      <trkpt lat="44.23805" lon="5.39093">
        <ele>914.08</ele>
        <time>2020-03-15T09:06:28Z</time>
      </trkpt>
      <trkpt lat="44.23822" lon="5.39058">
        <ele>912.18</ele>
        <time>2020-03-15T09:06:56Z</time>
      </trkpt>
      <trkpt lat="44.23835" lon="5.39045">
        <ele>911.44</ele>
        <time>2020-03-15T09:07:21Z</time>
      </trkpt>
      <trkpt lat="44.23842" lon="5.39043">
        <ele>910.84</ele>
        <time>2020-03-15T09:07:27Z</time>
      </trkpt>
      <trkpt lat="44.23846" lon="5.39042">
        <ele>910.44</ele>
        <time>2020-03-15T09:07:30Z</time>
      </trkpt>
      <trkpt lat="44.23866" lon="5.39023">
        <ele>906.96</ele>
        <time>2020-03-15T09:07:50Z</time>
      </trkpt>
      <trkpt lat="44.23882" lon="5.39013">
        <ele>903.74</ele>
        <time>2020-03-15T09:08:04Z</time>
      </trkpt>
      <trkpt lat="44.23896" lon="5.39003">
        <ele>900.62</ele>
        <time>2020-03-15T09:08:17Z</time>
      </trkpt>
      <trkpt lat="44.23906" lon="5.38982">
        <ele>897.56</ele>
        <time>2020-03-15T09:08:31Z</time>
      </trkpt>
      <trkpt lat="44.23917" lon="5.38967">
        <ele>895.68</ele>
        <time>2020-03-15T09:08:42Z</time>
      </trkpt>
      <trkpt lat="44.23925" lon="5.38955">
        <ele>894.41</ele>
        <time>2020-03-15T09:08:51Z</time>
      </trkpt>
      <trkpt lat="44.23933" lon="5.38948">
        <ele>893.59</ele>
        <time>2020-03-15T09:09:12Z</time>
      </trkpt>
      <trkpt lat="44.23948" lon="5.3895">
        <ele>892.83</ele>
        <time>2020-03-15T09:09:34Z</time>
      </trkpt>
      <trkpt lat="44.2396" lon="5.38956">
        <ele>893.75</ele>
        <time>2020-03-15T09:09:51Z</time>
      </trkpt>
      <trkpt lat="44.23964" lon="5.38957">
        <ele>892.53</ele>
        <time>2020-03-15T09:09:54Z</time>
      </trkpt>
      <trkpt lat="44.23966" lon="5.38957">
        <ele>892.95</ele>
        <time>2020-03-15T09:09:59Z</time>
      </trkpt>
      <trkpt lat="44.23972" lon="5.38962">
        <ele>893.91</ele>
        <time>2020-03-15T09:10:04Z</time>
      </trkpt>
      <trkpt lat="44.23977" lon="5.38972">
        <ele>896.37</ele>
        <time>2020-03-15T09:10:19Z</time>
      </trkpt>
      <trkpt lat="44.23994" lon="5.38989">
        <ele>899.63</ele>
        <time>2020-03-15T09:10:41Z</time>
      </trkpt>
      <trkpt lat="44.24008" lon="5.39002">
        <ele>902.78</ele>
        <time>2020-03-15T09:10:56Z</time>
      </trkpt>
      <trkpt lat="44.24021" lon="5.39025">
        <ele>906.07</ele>
        <time>2020-03-15T09:11:14Z</time>
      </trkpt>
      <trkpt lat="44.24033" lon="5.39042">
        <ele>909.23</ele>
        <time>2020-03-15T09:11:28Z</time>
      </trkpt>
      <trkpt lat="44.2404" lon="5.39047">
        <ele>911.55</ele>
        <time>2020-03-15T09:11:35Z</time>
      </trkpt>
      <trkpt lat="44.24043" lon="5.39049">
        <ele>911.57</ele>
        <time>2020-03-15T09:11:37Z</time>
      </trkpt>
      <trkpt lat="44.24058" lon="5.39058">
        <ele>914.73</ele>
        <time>2020-03-15T09:11:56Z</time>
      </trkpt>
      <trkpt lat="44.24072" lon="5.39065">
        <ele>918</ele>
        <time>2020-03-15T09:12:12Z</time>
      </trkpt>
      <trkpt lat="44.24075" lon="5.39064">
        <ele>919.27</ele>
        <time>2020-03-15T09:14:11Z</time>
      </trkpt>
      <trkpt lat="44.24077" lon="5.39062">
        <ele>919.41</ele>
        <time>2020-03-15T09:14:32Z</time>
      </trkpt>
      <trkpt lat="44.24082" lon="5.39051">
        <ele>923.05</ele>
        <time>2020-03-15T09:14:44Z</time>
      </trkpt>
      <trkpt lat="44.24091" lon="5.39048">
        <ele>926.26</ele>
        <time>2020-03-15T09:14:59Z</time>
      </trkpt>
      <trkpt lat="44.24099" lon="5.39044">
        <ele>928.78</ele>
        <time>2020-03-15T09:15:09Z</time>
      </trkpt>
      <trkpt lat="44.24109" lon="5.3904">
        <ele>932.1</ele>
        <time>2020-03-15T09:15:23Z</time>
      </trkpt>
      <trkpt lat="44.24118" lon="5.39043">
        <ele>935.18</ele>
        <time>2020-03-15T09:15:36Z</time>
      </trkpt>
      <trkpt lat="44.24118" lon="5.39045">
        <ele>935.82</ele>
        <time>2020-03-15T09:15:38Z</time>
      </trkpt>
      <trkpt lat="44.24124" lon="5.39062">
        <ele>939.49</ele>
        <time>2020-03-15T09:15:54Z</time>
      </trkpt>
      <trkpt lat="44.24123" lon="5.39077">
        <ele>942.54</ele>
        <time>2020-03-15T09:16:08Z</time>
      </trkpt>
      <trkpt lat="44.24124" lon="5.39086">
        <ele>945.56</ele>
        <time>2020-03-15T09:16:19Z</time>
      </trkpt>
      <trkpt lat="44.24131" lon="5.39097">
        <ele>948.31</ele>
        <time>2020-03-15T09:16:34Z</time>
      </trkpt>
      <trkpt lat="44.24137" lon="5.39099">
        <ele>949.75</ele>
        <time>2020-03-15T09:16:57Z</time>
      </trkpt>
      <trkpt lat="44.24138" lon="5.39099">
        <ele>949.68</ele>
        <time>2020-03-15T09:17:37Z</time>
      </trkpt>
      <trkpt lat="44.24138" lon="5.391">
        <ele>949.69</ele>
        <time>2020-03-15T09:17:48Z</time>
      </trkpt>
      <trkpt lat="44.24146" lon="5.39097">
        <ele>951.9</ele>
        <time>2020-03-15T09:17:58Z</time>
      </trkpt>
      <trkpt lat="44.24159" lon="5.39102">
        <ele>955.32</ele>
        <time>2020-03-15T09:18:13Z</time>
      </trkpt>
      <trkpt lat="44.24169" lon="5.39112">
        <ele>958.42</ele>
        <time>2020-03-15T09:18:30Z</time>
      </trkpt>
      <trkpt lat="44.24176" lon="5.39111">
        <ele>961.57</ele>
        <time>2020-03-15T09:18:38Z</time>
      </trkpt>
      <trkpt lat="44.24183" lon="5.39115">
        <ele>963.62</ele>
        <time>2020-03-15T09:18:48Z</time>
      </trkpt>
      <trkpt lat="44.2419" lon="5.39117">
        <ele>964.77</ele>
        <time>2020-03-15T09:18:54Z</time>
      </trkpt>
      <trkpt lat="44.24194" lon="5.39119">
        <ele>965.94</ele>
        <time>2020-03-15T09:18:59Z</time>
      </trkpt>
      <trkpt lat="44.24198" lon="5.39116">
        <ele>966.23</ele>
        <time>2020-03-15T09:19:03Z</time>
      </trkpt>
      <trkpt lat="44.24206" lon="5.39116">
        <ele>966.27</ele>
        <time>2020-03-15T09:19:09Z</time>
      </trkpt>
      <trkpt lat="44.24228" lon="5.39122">
        <ele>968.31</ele>
        <time>2020-03-15T09:19:25Z</time>
      </trkpt>
      <trkpt lat="44.24247" lon="5.39138">
        <ele>966.97</ele>
        <time>2020-03-15T09:19:45Z</time>
      </trkpt>
      <trkpt lat="44.24249" lon="5.39141">
        <ele>966.6</ele>
        <time>2020-03-15T09:19:47Z</time>
      </trkpt>
      <trkpt lat="44.24258" lon="5.39153">
        <ele>966.24</ele>
        <time>2020-03-15T09:20:00Z</time>
      </trkpt>
      <trkpt lat="44.24272" lon="5.39173">
        <ele>966.2</ele>
        <time>2020-03-15T09:20:17Z</time>
      </trkpt>
      <trkpt lat="44.24291" lon="5.39201">
        <ele>965.43</ele>
        <time>2020-03-15T09:20:37Z</time>
      </trkpt>
      <trkpt lat="44.24305" lon="5.39228">
        <ele>966.96</ele>
        <time>2020-03-15T09:20:56Z</time>
      </trkpt>
      <trkpt lat="44.24311" lon="5.39238">
        <ele>968.32</ele>
        <time>2020-03-15T09:21:06Z</time>
      </trkpt>
      <trkpt lat="44.24317" lon="5.39247">
        <ele>968.01</ele>
        <time>2020-03-15T09:21:12Z</time>
      </trkpt>
      <trkpt lat="44.24325" lon="5.39271">
        <ele>968.39</ele>
        <time>2020-03-15T09:21:25Z</time>
      </trkpt>
      <trkpt lat="44.24333" lon="5.39275">
        <ele>967.73</ele>
        <time>2020-03-15T09:21:31Z</time>
      </trkpt>
      <trkpt lat="44.2434" lon="5.3928">
        <ele>967.75</ele>
        <time>2020-03-15T09:21:37Z</time>
      </trkpt>
      <trkpt lat="44.24345" lon="5.39283">
        <ele>967.81</ele>
        <time>2020-03-15T09:21:41Z</time>
      </trkpt>
      <trkpt lat="44.24355" lon="5.39288">
        <ele>970.12</ele>
        <time>2020-03-15T09:21:53Z</time>
      </trkpt>
      <trkpt lat="44.24358" lon="5.39289">
        <ele>970.89</ele>
        <time>2020-03-15T09:21:56Z</time>
      </trkpt>
      <trkpt lat="44.24365" lon="5.39289">
        <ele>971.56</ele>
        <time>2020-03-15T09:22:00Z</time>
      </trkpt>
      <trkpt lat="44.2437" lon="5.39292">
        <ele>972.17</ele>
        <time>2020-03-15T09:22:06Z</time>
      </trkpt>
      <trkpt lat="44.24386" lon="5.39306">
        <ele>975.33</ele>
        <time>2020-03-15T09:22:25Z</time>
      </trkpt>
      <trkpt lat="44.24393" lon="5.39318">
        <ele>978.16</ele>
        <time>2020-03-15T09:22:36Z</time>
      </trkpt>
      <trkpt lat="44.24398" lon="5.39349">
        <ele>981.27</ele>
        <time>2020-03-15T09:23:03Z</time>
      </trkpt>
      <trkpt lat="44.24404" lon="5.39351">
        <ele>981.3</ele>
        <time>2020-03-15T09:23:16Z</time>
      </trkpt>
      <trkpt lat="44.24406" lon="5.39358">
        <ele>981.1</ele>
        <time>2020-03-15T09:23:43Z</time>
      </trkpt>
      <trkpt lat="44.24413" lon="5.39364">
        <ele>981.83</ele>
        <time>2020-03-15T09:24:12Z</time>
      </trkpt>
      <trkpt lat="44.24419" lon="5.39388">
        <ele>985.14</ele>
        <time>2020-03-15T09:24:31Z</time>
      </trkpt>
      <trkpt lat="44.24419" lon="5.39389">
        <ele>985.28</ele>
        <time>2020-03-15T09:24:32Z</time>
      </trkpt>
      <trkpt lat="44.24424" lon="5.39395">
        <ele>985.65</ele>
        <time>2020-03-15T09:24:37Z</time>
      </trkpt>
      <trkpt lat="44.24428" lon="5.39389">
        <ele>986.49</ele>
        <time>2020-03-15T09:24:45Z</time>
      </trkpt>
      <trkpt lat="44.24431" lon="5.39388">
        <ele>986.7</ele>
        <time>2020-03-15T09:24:47Z</time>
      </trkpt>
      <trkpt lat="44.24439" lon="5.39371">
        <ele>987.94</ele>
        <time>2020-03-15T09:25:01Z</time>
      </trkpt>
      <trkpt lat="44.24449" lon="5.39367">
        <ele>989.77</ele>
        <time>2020-03-15T09:25:11Z</time>
      </trkpt>
      <trkpt lat="44.24451" lon="5.39366">
        <ele>990.31</ele>
        <time>2020-03-15T09:25:13Z</time>
      </trkpt>
      <trkpt lat="44.24461" lon="5.39369">
        <ele>992.88</ele>
        <time>2020-03-15T09:25:23Z</time>
      </trkpt>
      <trkpt lat="44.24465" lon="5.39363">
        <ele>993.85</ele>
        <time>2020-03-15T09:25:32Z</time>
      </trkpt>
      <trkpt lat="44.24482" lon="5.3935">
        <ele>996.88</ele>
        <time>2020-03-15T09:25:53Z</time>
      </trkpt>
      <trkpt lat="44.24487" lon="5.39347">
        <ele>997.91</ele>
        <time>2020-03-15T09:25:59Z</time>
      </trkpt>
      <trkpt lat="44.2449" lon="5.39343">
        <ele>998.62</ele>
        <time>2020-03-15T09:26:04Z</time>
      </trkpt>
      <trkpt lat="44.24494" lon="5.39336">
        <ele>999.65</ele>
        <time>2020-03-15T09:26:22Z</time>
      </trkpt>
      <trkpt lat="44.24496" lon="5.39333">
        <ele>999.02</ele>
        <time>2020-03-15T09:26:42Z</time>
      </trkpt>
      <trkpt lat="44.24497" lon="5.39331">
        <ele>999.46</ele>
        <time>2020-03-15T09:26:45Z</time>
      </trkpt>
      <trkpt lat="44.245" lon="5.39325">
        <ele>999.21</ele>
        <time>2020-03-15T09:27:11Z</time>
      </trkpt>
      <trkpt lat="44.24512" lon="5.39312">
        <ele>998.05</ele>
        <time>2020-03-15T09:28:10Z</time>
      </trkpt>
      <trkpt lat="44.24519" lon="5.39303">
        <ele>997.59</ele>
        <time>2020-03-15T09:28:17Z</time>
      </trkpt>
      <trkpt lat="44.24527" lon="5.39287">
        <ele>996.42</ele>
        <time>2020-03-15T09:28:28Z</time>
      </trkpt>
      <trkpt lat="44.24532" lon="5.39282">
        <ele>996.45</ele>
        <time>2020-03-15T09:28:34Z</time>
      </trkpt>
      <trkpt lat="44.24543" lon="5.39269">
        <ele>997.1</ele>
        <time>2020-03-15T09:28:44Z</time>
      </trkpt>
      <trkpt lat="44.24544" lon="5.39266">
        <ele>996.84</ele>
        <time>2020-03-15T09:28:46Z</time>
      </trkpt>
      <trkpt lat="44.24562" lon="5.39245">
        <ele>997.82</ele>
        <time>2020-03-15T09:29:06Z</time>
      </trkpt>
      <trkpt lat="44.24568" lon="5.39241">
        <ele>998.16</ele>
        <time>2020-03-15T09:29:12Z</time>
      </trkpt>
      <trkpt lat="44.24571" lon="5.39238">
        <ele>998.55</ele>
        <time>2020-03-15T09:29:15Z</time>
      </trkpt>
      <trkpt lat="44.24584" lon="5.39233">
        <ele>1000.63</ele>
        <time>2020-03-15T09:29:37Z</time>
      </trkpt>
      <trkpt lat="44.24577" lon="5.39225">
        <ele>999.86</ele>
        <time>2020-03-15T09:30:10Z</time>
      </trkpt>
      <trkpt lat="44.24561" lon="5.39248">
        <ele>999.76</ele>
        <time>2020-03-15T09:30:30Z</time>
      </trkpt>
      <trkpt lat="44.2455" lon="5.39272">
        <ele>999.62</ele>
        <time>2020-03-15T09:30:49Z</time>
      </trkpt>
      <trkpt lat="44.24544" lon="5.39285">
        <ele>999.4</ele>
        <time>2020-03-15T09:30:58Z</time>
      </trkpt>
      <trkpt lat="44.24531" lon="5.39307">
        <ele>999.85</ele>
        <time>2020-03-15T09:31:15Z</time>
      </trkpt>
      <trkpt lat="44.24529" lon="5.39313">
        <ele>1000.05</ele>
        <time>2020-03-15T09:31:19Z</time>
      </trkpt>
      <trkpt lat="44.24528" lon="5.39316">
        <ele>1000.08</ele>
        <time>2020-03-15T09:31:21Z</time>
      </trkpt>
      <trkpt lat="44.24517" lon="5.3934">
        <ele>1002.02</ele>
        <time>2020-03-15T09:31:38Z</time>
      </trkpt>
      <trkpt lat="44.24509" lon="5.39354">
        <ele>1002.12</ele>
        <time>2020-03-15T09:31:48Z</time>
      </trkpt>
      <trkpt lat="44.24494" lon="5.39376">
        <ele>1004.12</ele>
        <time>2020-03-15T09:32:05Z</time>
      </trkpt>
      <trkpt lat="44.24489" lon="5.39382">
        <ele>1005.13</ele>
        <time>2020-03-15T09:32:11Z</time>
      </trkpt>
      <trkpt lat="44.24477" lon="5.39403">
        <ele>1007.52</ele>
        <time>2020-03-15T09:32:29Z</time>
      </trkpt>
      <trkpt lat="44.24461" lon="5.39428">
        <ele>1009.89</ele>
        <time>2020-03-15T09:32:50Z</time>
      </trkpt>
      <trkpt lat="44.24459" lon="5.39431">
        <ele>1009.91</ele>
        <time>2020-03-15T09:32:52Z</time>
      </trkpt>
      <trkpt lat="44.24445" lon="5.39447">
        <ele>1011.34</ele>
        <time>2020-03-15T09:33:09Z</time>
      </trkpt>
      <trkpt lat="44.24444" lon="5.39448">
        <ele>1011.34</ele>
        <time>2020-03-15T09:33:13Z</time>
      </trkpt>
      <trkpt lat="44.24429" lon="5.39462">
        <ele>1013.17</ele>
        <time>2020-03-15T09:33:41Z</time>
      </trkpt>
      <trkpt lat="44.24409" lon="5.39465">
        <ele>1014.41</ele>
        <time>2020-03-15T09:34:00Z</time>
      </trkpt>
      <trkpt lat="44.24402" lon="5.39461">
        <ele>1014.42</ele>
        <time>2020-03-15T09:34:25Z</time>
      </trkpt>
      <trkpt lat="44.24385" lon="5.39446">
        <ele>1015.43</ele>
        <time>2020-03-15T09:34:53Z</time>
      </trkpt>
      <trkpt lat="44.24375" lon="5.39437">
        <ele>1016.43</ele>
        <time>2020-03-15T09:35:14Z</time>
      </trkpt>
      <trkpt lat="44.24353" lon="5.39428">
        <ele>1019.47</ele>
        <time>2020-03-15T09:35:36Z</time>
      </trkpt>
      <trkpt lat="44.24342" lon="5.39419">
        <ele>1020.81</ele>
        <time>2020-03-15T09:35:50Z</time>
      </trkpt>
      <trkpt lat="44.2432" lon="5.39404">
        <ele>1022.61</ele>
        <time>2020-03-15T09:36:11Z</time>
      </trkpt>
      <trkpt lat="44.24314" lon="5.394">
        <ele>1022.99</ele>
        <time>2020-03-15T09:36:17Z</time>
      </trkpt>
      <trkpt lat="44.24296" lon="5.39382">
        <ele>1023.82</ele>
        <time>2020-03-15T09:36:34Z</time>
      </trkpt>
      <trkpt lat="44.24283" lon="5.39368">
        <ele>1025.01</ele>
        <time>2020-03-15T09:36:53Z</time>
      </trkpt>
      <trkpt lat="44.24268" lon="5.3935">
        <ele>1025.86</ele>
        <time>2020-03-15T09:37:16Z</time>
      </trkpt>
      <trkpt lat="44.24251" lon="5.39325">
        <ele>1027.82</ele>
        <time>2020-03-15T09:37:37Z</time>
      </trkpt>
      <trkpt lat="44.24249" lon="5.39318">
        <ele>1028.14</ele>
        <time>2020-03-15T09:37:41Z</time>
      </trkpt>
      <trkpt lat="44.24246" lon="5.39315">
        <ele>1028.33</ele>
        <time>2020-03-15T09:37:44Z</time>
      </trkpt>
      <trkpt lat="44.2424" lon="5.39305">
        <ele>1028.49</ele>
        <time>2020-03-15T09:37:51Z</time>
      </trkpt>
      <trkpt lat="44.2423" lon="5.39289">
        <ele>1028.91</ele>
        <time>2020-03-15T09:38:03Z</time>
      </trkpt>
      <trkpt lat="44.24226" lon="5.39282">
        <ele>1029.06</ele>
        <time>2020-03-15T09:38:09Z</time>
      </trkpt>
      <trkpt lat="44.24209" lon="5.39258">
        <ele>1029.37</ele>
        <time>2020-03-15T09:38:27Z</time>
      </trkpt>
      <trkpt lat="44.24203" lon="5.39251">
        <ele>1029.52</ele>
        <time>2020-03-15T09:38:33Z</time>
      </trkpt>
      <trkpt lat="44.24199" lon="5.3925">
        <ele>1029.67</ele>
        <time>2020-03-15T09:38:37Z</time>
      </trkpt>
      <trkpt lat="44.24194" lon="5.39261">
        <ele>1033.09</ele>
        <time>2020-03-15T09:38:53Z</time>
      </trkpt>
      <trkpt lat="44.24197" lon="5.39268">
        <ele>1035.29</ele>
        <time>2020-03-15T09:39:02Z</time>
      </trkpt>
      <trkpt lat="44.24199" lon="5.39277">
        <ele>1037.11</ele>
        <time>2020-03-15T09:39:10Z</time>
      </trkpt>
      <trkpt lat="44.24204" lon="5.39287">
        <ele>1039.38</ele>
        <time>2020-03-15T09:39:20Z</time>
      </trkpt>
      <trkpt lat="44.24209" lon="5.39303">
        <ele>1042.96</ele>
        <time>2020-03-15T09:39:34Z</time>
      </trkpt>
      <trkpt lat="44.24214" lon="5.39319">
        <ele>1046.05</ele>
        <time>2020-03-15T09:39:48Z</time>
      </trkpt>
      <trkpt lat="44.24214" lon="5.39333">
        <ele>1047.85</ele>
        <time>2020-03-15T09:40:01Z</time>
      </trkpt>
      <trkpt lat="44.24214" lon="5.39343">
        <ele>1048.68</ele>
        <time>2020-03-15T09:40:08Z</time>
      </trkpt>
      <trkpt lat="44.24214" lon="5.39348">
        <ele>1049.52</ele>
        <time>2020-03-15T09:40:12Z</time>
      </trkpt>
      <trkpt lat="44.24215" lon="5.39364">
        <ele>1052.85</ele>
        <time>2020-03-15T09:40:27Z</time>
      </trkpt>
      <trkpt lat="44.24213" lon="5.39382">
        <ele>1055.97</ele>
        <time>2020-03-15T09:40:42Z</time>
      </trkpt>
      <trkpt lat="44.24214" lon="5.39396">
        <ele>1059.25</ele>
        <time>2020-03-15T09:40:55Z</time>
      </trkpt>
      <trkpt lat="44.24211" lon="5.39407">
        <ele>1062.27</ele>
        <time>2020-03-15T09:41:07Z</time>
      </trkpt>
      <trkpt lat="44.24211" lon="5.39417">
        <ele>1065.35</ele>
        <time>2020-03-15T09:41:20Z</time>
      </trkpt>
      <trkpt lat="44.24212" lon="5.39429">
        <ele>1068.53</ele>
        <time>2020-03-15T09:41:33Z</time>
      </trkpt>
      <trkpt lat="44.24211" lon="5.39438">
        <ele>1071.88</ele>
        <time>2020-03-15T09:41:46Z</time>
      </trkpt>
      <trkpt lat="44.24203" lon="5.39442">
        <ele>1073.92</ele>
        <time>2020-03-15T09:42:11Z</time>
      </trkpt>
      <trkpt lat="44.24202" lon="5.3945">
        <ele>1073.68</ele>
        <time>2020-03-15T09:42:33Z</time>
      </trkpt>
      <trkpt lat="44.24199" lon="5.39459">
        <ele>1073.95</ele>
        <time>2020-03-15T09:43:11Z</time>
      </trkpt>
      <trkpt lat="44.24202" lon="5.39465">
        <ele>1073.83</ele>
        <time>2020-03-15T09:43:56Z</time>
      </trkpt>
      <trkpt lat="44.24204" lon="5.39466">
        <ele>1073.73</ele>
        <time>2020-03-15T09:43:58Z</time>
      </trkpt>
      <trkpt lat="44.24207" lon="5.39469">
        <ele>1073.87</ele>
        <time>2020-03-15T09:44:02Z</time>
      </trkpt>
      <trkpt lat="44.24189" lon="5.39481">
        <ele>1081.2</ele>
        <time>2020-03-15T10:22:44Z</time>
      </trkpt>
      <trkpt lat="44.24169" lon="5.39482">
        <ele>1082.04</ele>
        <time>2020-03-15T10:23:31Z</time>
      </trkpt>
      <trkpt lat="44.24143" lon="5.39503">
        <ele>1083.13</ele>
        <time>2020-03-15T10:23:54Z</time>
      </trkpt>
      <trkpt lat="44.2412" lon="5.39509">
        <ele>1085.41</ele>
        <time>2020-03-15T10:24:22Z</time>
      </trkpt>
      <trkpt lat="44.24105" lon="5.39513">
        <ele>1086.57</ele>
        <time>2020-03-15T10:24:38Z</time>
      </trkpt>
      <trkpt lat="44.24085" lon="5.39526">
        <ele>1089.65</ele>
        <time>2020-03-15T10:24:59Z</time>
      </trkpt>
      <trkpt lat="44.24076" lon="5.39532">
        <ele>1091.83</ele>
        <time>2020-03-15T10:25:10Z</time>
      </trkpt>
      <trkpt lat="44.24028" lon="5.39595">
        <ele>1089.9</ele>
        <time>2020-03-15T10:26:09Z</time>
      </trkpt>
      <trkpt lat="44.24026" lon="5.39597">
        <ele>1088.8</ele>
        <time>2020-03-15T10:26:11Z</time>
      </trkpt>
      <trkpt lat="44.24006" lon="5.39627">
        <ele>1089.84</ele>
        <time>2020-03-15T10:26:35Z</time>
      </trkpt>
      <trkpt lat="44.2399" lon="5.39649">
        <ele>1090.96</ele>
        <time>2020-03-15T10:26:55Z</time>
      </trkpt>
      <trkpt lat="44.23975" lon="5.3967">
        <ele>1090.78</ele>
        <time>2020-03-15T10:27:03Z</time>
      </trkpt>
      <trkpt lat="44.23966" lon="5.39691">
        <ele>1090.75</ele>
        <time>2020-03-15T10:27:17Z</time>
      </trkpt>
      <trkpt lat="44.23964" lon="5.39721">
        <ele>1090.37</ele>
        <time>2020-03-15T10:27:41Z</time>
      </trkpt>
      <trkpt lat="44.23973" lon="5.39815">
        <ele>1079.61</ele>
        <time>2020-03-15T10:29:59Z</time>
      </trkpt>
      <trkpt lat="44.23975" lon="5.39848">
        <ele>1079.52</ele>
        <time>2020-03-15T10:30:00Z</time>
      </trkpt>
      <trkpt lat="44.23976" lon="5.39859">
        <ele>1079.47</ele>
        <time>2020-03-15T10:30:05Z</time>
      </trkpt>
      <trkpt lat="44.23977" lon="5.39866">
        <ele>1078.98</ele>
        <time>2020-03-15T10:30:09Z</time>
      </trkpt>
      <trkpt lat="44.23978" lon="5.39873">
        <ele>1078.97</ele>
        <time>2020-03-15T10:30:13Z</time>
      </trkpt>
      <trkpt lat="44.2398" lon="5.39929">
        <ele>1078.48</ele>
        <time>2020-03-15T10:30:45Z</time>
      </trkpt>
      <trkpt lat="44.23981" lon="5.39954">
        <ele>1080.8</ele>
        <time>2020-03-15T10:31:06Z</time>
      </trkpt>
      <trkpt lat="44.23981" lon="5.39967">
        <ele>1083.09</ele>
        <time>2020-03-15T10:31:13Z</time>
      </trkpt>
      <trkpt lat="44.23984" lon="5.40003">
        <ele>1085.91</ele>
        <time>2020-03-15T10:31:27Z</time>
      </trkpt>
      <trkpt lat="44.24008" lon="5.40051">
        <ele>1087.13</ele>
        <time>2020-03-15T10:31:38Z</time>
      </trkpt>
      <trkpt lat="44.24017" lon="5.40084">
        <ele>1089.09</ele>
        <time>2020-03-15T10:31:56Z</time>
      </trkpt>
      <trkpt lat="44.24026" lon="5.40101">
        <ele>1090.61</ele>
        <time>2020-03-15T10:32:07Z</time>
      </trkpt>
      <trkpt lat="44.24029" lon="5.40105">
        <ele>1094.23</ele>
        <time>2020-03-15T10:34:59Z</time>
      </trkpt>
      <trkpt lat="44.24047" lon="5.40127">
        <ele>1094.53</ele>
        <time>2020-03-15T10:35:20Z</time>
      </trkpt>
      <trkpt lat="44.24057" lon="5.40161">
        <ele>1095.16</ele>
        <time>2020-03-15T10:35:22Z</time>
      </trkpt>
      <trkpt lat="44.24073" lon="5.40192">
        <ele>1092.54</ele>
        <time>2020-03-15T10:35:45Z</time>
      </trkpt>
      <trkpt lat="44.24089" lon="5.40219">
        <ele>1093.99</ele>
        <time>2020-03-15T10:36:05Z</time>
      </trkpt>
      <trkpt lat="44.24096" lon="5.40233">
        <ele>1093.8</ele>
        <time>2020-03-15T10:36:24Z</time>
      </trkpt>
      <trkpt lat="44.24105" lon="5.40253">
        <ele>1092.99</ele>
        <time>2020-03-15T10:36:31Z</time>
      </trkpt>
      <trkpt lat="44.24108" lon="5.40275">
        <ele>1091.66</ele>
        <time>2020-03-15T10:36:40Z</time>
      </trkpt>
      <trkpt lat="44.24119" lon="5.40314">
        <ele>1090.19</ele>
        <time>2020-03-15T10:37:04Z</time>
      </trkpt>
      <trkpt lat="44.24132" lon="5.40343">
        <ele>1086.7</ele>
        <time>2020-03-15T10:37:27Z</time>
      </trkpt>
      <trkpt lat="44.24152" lon="5.40362">
        <ele>1084.52</ele>
        <time>2020-03-15T10:37:43Z</time>
      </trkpt>
      <trkpt lat="44.24171" lon="5.40394">
        <ele>1079.91</ele>
        <time>2020-03-15T10:38:15Z</time>
      </trkpt>
      <trkpt lat="44.24186" lon="5.40419">
        <ele>1076.56</ele>
        <time>2020-03-15T10:38:28Z</time>
      </trkpt>
      <trkpt lat="44.24197" lon="5.40455">
        <ele>1073.7</ele>
        <time>2020-03-15T10:38:47Z</time>
      </trkpt>
      <trkpt lat="44.242" lon="5.40464">
        <ele>1070.41</ele>
        <time>2020-03-15T10:39:11Z</time>
      </trkpt>
      <trkpt lat="44.24213" lon="5.40493">
        <ele>1068.02</ele>
        <time>2020-03-15T10:39:31Z</time>
      </trkpt>
      <trkpt lat="44.24231" lon="5.4053">
        <ele>1066.39</ele>
        <time>2020-03-15T10:39:52Z</time>
      </trkpt>
      <trkpt lat="44.24247" lon="5.40568">
        <ele>1065.78</ele>
        <time>2020-03-15T10:40:16Z</time>
      </trkpt>
      <trkpt lat="44.24282" lon="5.40624">
        <ele>1070.62</ele>
        <time>2020-03-15T10:41:31Z</time>
      </trkpt>
      <trkpt lat="44.24292" lon="5.40642">
        <ele>1070.81</ele>
        <time>2020-03-15T10:41:40Z</time>
      </trkpt>
      <trkpt lat="44.24296" lon="5.40647">
        <ele>1071.88</ele>
        <time>2020-03-15T10:42:08Z</time>
      </trkpt>
      <trkpt lat="44.24324" lon="5.40677">
        <ele>1074.94</ele>
        <time>2020-03-15T10:42:26Z</time>
      </trkpt>
      <trkpt lat="44.24326" lon="5.40678">
        <ele>1077.67</ele>
        <time>2020-03-15T10:42:48Z</time>
      </trkpt>
      <trkpt lat="44.24348" lon="5.40687">
        <ele>1078.02</ele>
        <time>2020-03-15T10:43:12Z</time>
      </trkpt>
      <trkpt lat="44.24363" lon="5.407">
        <ele>1078.77</ele>
        <time>2020-03-15T10:43:30Z</time>
      </trkpt>
      <trkpt lat="44.24365" lon="5.40721">
        <ele>1078.17</ele>
        <time>2020-03-15T10:43:43Z</time>
      </trkpt>
      <trkpt lat="44.24366" lon="5.40736">
        <ele>1077.44</ele>
        <time>2020-03-15T10:43:48Z</time>
      </trkpt>
      <trkpt lat="44.24368" lon="5.40751">
        <ele>1076.19</ele>
        <time>2020-03-15T10:44:09Z</time>
      </trkpt>
      <trkpt lat="44.24375" lon="5.40816">
        <ele>1078.86</ele>
        <time>2020-03-15T10:45:41Z</time>
      </trkpt>
      <trkpt lat="44.24376" lon="5.40832">
        <ele>1081.94</ele>
        <time>2020-03-15T10:45:59Z</time>
      </trkpt>
      <trkpt lat="44.24378" lon="5.40858">
        <ele>1085.18</ele>
        <time>2020-03-15T10:46:15Z</time>
      </trkpt>
      <trkpt lat="44.24379" lon="5.40886">
        <ele>1089.3</ele>
        <time>2020-03-15T10:46:43Z</time>
      </trkpt>
      <trkpt lat="44.24379" lon="5.40907">
        <ele>1092.42</ele>
        <time>2020-03-15T10:46:58Z</time>
      </trkpt>
      <trkpt lat="44.24379" lon="5.40931">
        <ele>1093.14</ele>
        <time>2020-03-15T10:47:20Z</time>
      </trkpt>
      <trkpt lat="44.24379" lon="5.40943">
        <ele>1089.11</ele>
        <time>2020-03-15T10:47:54Z</time>
      </trkpt>
      <trkpt lat="44.24377" lon="5.4096">
        <ele>1088.19</ele>
        <time>2020-03-15T10:48:20Z</time>
      </trkpt>
      <trkpt lat="44.24377" lon="5.40982">
        <ele>1087.97</ele>
        <time>2020-03-15T10:48:26Z</time>
      </trkpt>
      <trkpt lat="44.2437" lon="5.41006">
        <ele>1088.07</ele>
        <time>2020-03-15T10:48:52Z</time>
      </trkpt>
      <trkpt lat="44.2437" lon="5.41012">
        <ele>1087.52</ele>
        <time>2020-03-15T10:49:21Z</time>
      </trkpt>
      <trkpt lat="44.24367" lon="5.4104">
        <ele>1089.62</ele>
        <time>2020-03-15T10:49:44Z</time>
      </trkpt>
      <trkpt lat="44.24364" lon="5.41071">
        <ele>1092.63</ele>
        <time>2020-03-15T10:50:01Z</time>
      </trkpt>
      <trkpt lat="44.24361" lon="5.41103">
        <ele>1093.56</ele>
        <time>2020-03-15T10:50:07Z</time>
      </trkpt>
      <trkpt lat="44.24366" lon="5.4112">
        <ele>1093.5</ele>
        <time>2020-03-15T10:50:31Z</time>
      </trkpt>
      <trkpt lat="44.24365" lon="5.41139">
        <ele>1093.53</ele>
        <time>2020-03-15T10:50:34Z</time>
      </trkpt>
      <trkpt lat="44.24361" lon="5.41171">
        <ele>1094.26</ele>
        <time>2020-03-15T10:51:02Z</time>
      </trkpt>
      <trkpt lat="44.24356" lon="5.412">
        <ele>1094.4</ele>
        <time>2020-03-15T10:51:13Z</time>
      </trkpt>
      <trkpt lat="44.24353" lon="5.41219">
        <ele>1094.65</ele>
        <time>2020-03-15T10:51:20Z</time>
      </trkpt>
      <trkpt lat="44.24349" lon="5.41245">
        <ele>1095.9</ele>
        <time>2020-03-15T10:51:45Z</time>
      </trkpt>
      <trkpt lat="44.24343" lon="5.41268">
        <ele>1096.98</ele>
        <time>2020-03-15T10:51:55Z</time>
      </trkpt>
      <trkpt lat="44.24343" lon="5.41289">
        <ele>1098.03</ele>
        <time>2020-03-15T10:52:20Z</time>
      </trkpt>
      <trkpt lat="44.24344" lon="5.41305">
        <ele>1098.58</ele>
        <time>2020-03-15T10:52:24Z</time>
      </trkpt>
      <trkpt lat="44.24344" lon="5.41318">
        <ele>1099.47</ele>
        <time>2020-03-15T10:52:38Z</time>
      </trkpt>
      <trkpt lat="44.24344" lon="5.41332">
        <ele>1100.31</ele>
        <time>2020-03-15T10:52:49Z</time>
      </trkpt>
      <trkpt lat="44.24344" lon="5.41339">
        <ele>1100.55</ele>
        <time>2020-03-15T10:52:51Z</time>
      </trkpt>
      <trkpt lat="44.24344" lon="5.41345">
        <ele>1101.58</ele>
        <time>2020-03-15T10:53:19Z</time>
      </trkpt>
      <trkpt lat="44.24347" lon="5.41359">
        <ele>1102.58</ele>
        <time>2020-03-15T10:53:43Z</time>
      </trkpt>
      <trkpt lat="44.24353" lon="5.41366">
        <ele>1100.11</ele>
        <time>2020-03-15T10:53:56Z</time>
      </trkpt>
      <trkpt lat="44.24357" lon="5.41371">
        <ele>1099.86</ele>
        <time>2020-03-15T10:53:58Z</time>
      </trkpt>
      <trkpt lat="44.24362" lon="5.41375">
        <ele>1099.69</ele>
        <time>2020-03-15T10:54:02Z</time>
      </trkpt>
      <trkpt lat="44.24368" lon="5.41384">
        <ele>1099.65</ele>
        <time>2020-03-15T10:54:26Z</time>
      </trkpt>
      <trkpt lat="44.24374" lon="5.41392">
        <ele>1099.45</ele>
        <time>2020-03-15T10:54:51Z</time>
      </trkpt>
      <trkpt lat="44.24379" lon="5.41397">
        <ele>1099.03</ele>
        <time>2020-03-15T10:55:10Z</time>
      </trkpt>
      <trkpt lat="44.24386" lon="5.41405">
        <ele>1099.26</ele>
        <time>2020-03-15T10:55:19Z</time>
      </trkpt>
      <trkpt lat="44.24402" lon="5.41423">
        <ele>1101.64</ele>
        <time>2020-03-15T10:55:42Z</time>
      </trkpt>
      <trkpt lat="44.24417" lon="5.41437">
        <ele>1104.69</ele>
        <time>2020-03-15T10:56:01Z</time>
      </trkpt>
      <trkpt lat="44.24435" lon="5.41452">
        <ele>1106.3</ele>
        <time>2020-03-15T10:56:22Z</time>
      </trkpt>
      <trkpt lat="44.24458" lon="5.41469">
        <ele>1106.32</ele>
        <time>2020-03-15T10:56:45Z</time>
      </trkpt>
      <trkpt lat="44.24473" lon="5.41485">
        <ele>1103.26</ele>
        <time>2020-03-15T10:57:00Z</time>
      </trkpt>
      <trkpt lat="44.24497" lon="5.41505">
        <ele>1106.06</ele>
        <time>2020-03-15T10:57:27Z</time>
      </trkpt>
      <trkpt lat="44.24517" lon="5.41519">
        <ele>1106.69</ele>
        <time>2020-03-15T10:57:38Z</time>
      </trkpt>
      <trkpt lat="44.24523" lon="5.41521">
        <ele>1106.12</ele>
        <time>2020-03-15T10:58:03Z</time>
      </trkpt>
      <trkpt lat="44.24527" lon="5.41525">
        <ele>1106.84</ele>
        <time>2020-03-15T10:58:39Z</time>
      </trkpt>
      <trkpt lat="44.24529" lon="5.41528">
        <ele>1106.24</ele>
        <time>2020-03-15T10:58:42Z</time>
      </trkpt>
      <trkpt lat="44.24534" lon="5.41536">
        <ele>1105.83</ele>
        <time>2020-03-15T10:58:51Z</time>
      </trkpt>
      <trkpt lat="44.24549" lon="5.41554">
        <ele>1109.12</ele>
        <time>2020-03-15T10:59:11Z</time>
      </trkpt>
      <trkpt lat="44.24559" lon="5.41564">
        <ele>1112.21</ele>
        <time>2020-03-15T10:59:25Z</time>
      </trkpt>
      <trkpt lat="44.24562" lon="5.41567">
        <ele>1113.81</ele>
        <time>2020-03-15T10:59:29Z</time>
      </trkpt>
      <trkpt lat="44.2457" lon="5.41575">
        <ele>1116.97</ele>
        <time>2020-03-15T10:59:41Z</time>
      </trkpt>
      <trkpt lat="44.24578" lon="5.41585">
        <ele>1120.23</ele>
        <time>2020-03-15T10:59:55Z</time>
      </trkpt>
      <trkpt lat="44.24583" lon="5.41594">
        <ele>1123.34</ele>
        <time>2020-03-15T11:00:05Z</time>
      </trkpt>
      <trkpt lat="44.24586" lon="5.41599">
        <ele>1126</ele>
        <time>2020-03-15T11:00:12Z</time>
      </trkpt>
      <trkpt lat="44.24592" lon="5.41618">
        <ele>1129.28</ele>
        <time>2020-03-15T11:00:29Z</time>
      </trkpt>
      <trkpt lat="44.24589" lon="5.41631">
        <ele>1128.83</ele>
        <time>2020-03-15T11:00:56Z</time>
      </trkpt>
      <trkpt lat="44.24588" lon="5.41639">
        <ele>1129.4</ele>
        <time>2020-03-15T11:01:30Z</time>
      </trkpt>
      <trkpt lat="44.24589" lon="5.41648">
        <ele>1129.35</ele>
        <time>2020-03-15T11:01:37Z</time>
      </trkpt>
      <trkpt lat="44.24583" lon="5.41694">
        <ele>1127.46</ele>
        <time>2020-03-15T11:02:09Z</time>
      </trkpt>
      <trkpt lat="44.24581" lon="5.41731">
        <ele>1127.28</ele>
        <time>2020-03-15T11:02:37Z</time>
      </trkpt>
      <trkpt lat="44.24581" lon="5.41733">
        <ele>1127.35</ele>
        <time>2020-03-15T11:02:38Z</time>
      </trkpt>
      <trkpt lat="44.24582" lon="5.41746">
        <ele>1127.54</ele>
        <time>2020-03-15T11:02:58Z</time>
      </trkpt>
      <trkpt lat="44.24581" lon="5.4175">
        <ele>1127.75</ele>
        <time>2020-03-15T11:03:00Z</time>
      </trkpt>
      <trkpt lat="44.24582" lon="5.41768">
        <ele>1128.79</ele>
        <time>2020-03-15T11:03:10Z</time>
      </trkpt>
      <trkpt lat="44.24582" lon="5.41774">
        <ele>1129.71</ele>
        <time>2020-03-15T11:03:14Z</time>
      </trkpt>
      <trkpt lat="44.24587" lon="5.41808">
        <ele>1132.16</ele>
        <time>2020-03-15T11:03:36Z</time>
      </trkpt>
      <trkpt lat="44.24588" lon="5.41816">
        <ele>1132.94</ele>
        <time>2020-03-15T11:03:51Z</time>
      </trkpt>
      <trkpt lat="44.2459" lon="5.41821">
        <ele>1133.54</ele>
        <time>2020-03-15T11:04:00Z</time>
      </trkpt>
      <trkpt lat="44.24591" lon="5.41823">
        <ele>1133.79</ele>
        <time>2020-03-15T11:04:02Z</time>
      </trkpt>
      <trkpt lat="44.24593" lon="5.41829">
        <ele>1134.1</ele>
        <time>2020-03-15T11:04:07Z</time>
      </trkpt>
      <trkpt lat="44.24596" lon="5.41842">
        <ele>1134.53</ele>
        <time>2020-03-15T11:04:26Z</time>
      </trkpt>
      <trkpt lat="44.24611" lon="5.41868">
        <ele>1135.51</ele>
        <time>2020-03-15T11:04:46Z</time>
      </trkpt>
      <trkpt lat="44.24615" lon="5.41876">
        <ele>1134.9</ele>
        <time>2020-03-15T11:04:55Z</time>
      </trkpt>
      <trkpt lat="44.24625" lon="5.41896">
        <ele>1135.05</ele>
        <time>2020-03-15T11:05:18Z</time>
      </trkpt>
      <trkpt lat="44.24629" lon="5.41902">
        <ele>1135.01</ele>
        <time>2020-03-15T11:05:23Z</time>
      </trkpt>
      <trkpt lat="44.24641" lon="5.41932">
        <ele>1138.33</ele>
        <time>2020-03-15T11:05:46Z</time>
      </trkpt>
      <trkpt lat="44.24642" lon="5.41933">
        <ele>1138.33</ele>
        <time>2020-03-15T11:05:47Z</time>
      </trkpt>
      <trkpt lat="44.24648" lon="5.41949">
        <ele>1139.8</ele>
        <time>2020-03-15T11:05:59Z</time>
      </trkpt>
      <trkpt lat="44.24651" lon="5.41956">
        <ele>1140.31</ele>
        <time>2020-03-15T11:06:09Z</time>
      </trkpt>
      <trkpt lat="44.24656" lon="5.41971">
        <ele>1141.19</ele>
        <time>2020-03-15T11:06:19Z</time>
      </trkpt>
      <trkpt lat="44.24657" lon="5.41987">
        <ele>1141.04</ele>
        <time>2020-03-15T11:06:37Z</time>
      </trkpt>
      <trkpt lat="44.24657" lon="5.4199">
        <ele>1141.2</ele>
        <time>2020-03-15T11:06:39Z</time>
      </trkpt>
      <trkpt lat="44.24659" lon="5.42003">
        <ele>1139.88</ele>
        <time>2020-03-15T11:06:59Z</time>
      </trkpt>
      <trkpt lat="44.24659" lon="5.4201">
        <ele>1139.43</ele>
        <time>2020-03-15T11:07:16Z</time>
      </trkpt>
      <trkpt lat="44.24659" lon="5.42019">
        <ele>1138.14</ele>
        <time>2020-03-15T11:07:23Z</time>
      </trkpt>
      <trkpt lat="44.24659" lon="5.42024">
        <ele>1137.66</ele>
        <time>2020-03-15T11:07:26Z</time>
      </trkpt>
      <trkpt lat="44.2466" lon="5.42049">
        <ele>1134.16</ele>
        <time>2020-03-15T11:07:41Z</time>
      </trkpt>
      <trkpt lat="44.24661" lon="5.42051">
        <ele>1134.02</ele>
        <time>2020-03-15T11:07:42Z</time>
      </trkpt>
      <trkpt lat="44.24655" lon="5.42056">
        <ele>1130.86</ele>
        <time>2020-03-15T11:07:53Z</time>
      </trkpt>
      <trkpt lat="44.24653" lon="5.42059">
        <ele>1130.3</ele>
        <time>2020-03-15T11:07:56Z</time>
      </trkpt>
      <trkpt lat="44.24652" lon="5.42061">
        <ele>1129.44</ele>
        <time>2020-03-15T11:07:58Z</time>
      </trkpt>
      <trkpt lat="44.24651" lon="5.42065">
        <ele>1128.21</ele>
        <time>2020-03-15T11:08:01Z</time>
      </trkpt>
      <trkpt lat="44.24649" lon="5.42069">
        <ele>1126.9</ele>
        <time>2020-03-15T11:08:04Z</time>
      </trkpt>
      <trkpt lat="44.24648" lon="5.42083">
        <ele>1123.23</ele>
        <time>2020-03-15T11:08:15Z</time>
      </trkpt>
      <trkpt lat="44.24644" lon="5.42093">
        <ele>1120.23</ele>
        <time>2020-03-15T11:08:24Z</time>
      </trkpt>
      <trkpt lat="44.2464" lon="5.42104">
        <ele>1118.68</ele>
        <time>2020-03-15T11:08:31Z</time>
      </trkpt>
      <trkpt lat="44.24636" lon="5.42109">
        <ele>1117.52</ele>
        <time>2020-03-15T11:08:35Z</time>
      </trkpt>
      <trkpt lat="44.24635" lon="5.42112">
        <ele>1116.57</ele>
        <time>2020-03-15T11:08:37Z</time>
      </trkpt>
      <trkpt lat="44.24631" lon="5.42117">
        <ele>1115.84</ele>
        <time>2020-03-15T11:08:41Z</time>
      </trkpt>
      <trkpt lat="44.24625" lon="5.42128">
        <ele>1113.86</ele>
        <time>2020-03-15T11:08:50Z</time>
      </trkpt>
      <trkpt lat="44.24622" lon="5.42131">
        <ele>1113.15</ele>
        <time>2020-03-15T11:08:53Z</time>
      </trkpt>
      <trkpt lat="44.24613" lon="5.42155">
        <ele>1109.15</ele>
        <time>2020-03-15T11:09:08Z</time>
      </trkpt>
      <trkpt lat="44.24612" lon="5.42156">
        <ele>1108.89</ele>
        <time>2020-03-15T11:09:09Z</time>
      </trkpt>
      <trkpt lat="44.24608" lon="5.42172">
        <ele>1105.87</ele>
        <time>2020-03-15T11:09:20Z</time>
      </trkpt>
      <trkpt lat="44.24608" lon="5.42173">
        <ele>1106.05</ele>
        <time>2020-03-15T11:09:24Z</time>
      </trkpt>
      <trkpt lat="44.24607" lon="5.42186">
        <ele>1105.46</ele>
        <time>2020-03-15T11:09:48Z</time>
      </trkpt>
      <trkpt lat="44.24606" lon="5.42188">
        <ele>1105.32</ele>
        <time>2020-03-15T11:09:52Z</time>
      </trkpt>
      <trkpt lat="44.24601" lon="5.42203">
        <ele>1102.26</ele>
        <time>2020-03-15T11:10:02Z</time>
      </trkpt>
      <trkpt lat="44.24594" lon="5.4221">
        <ele>1099.67</ele>
        <time>2020-03-15T11:10:11Z</time>
      </trkpt>
      <trkpt lat="44.24591" lon="5.42218">
        <ele>1098.66</ele>
        <time>2020-03-15T11:10:17Z</time>
      </trkpt>
      <trkpt lat="44.24579" lon="5.42229">
        <ele>1095.29</ele>
        <time>2020-03-15T11:10:30Z</time>
      </trkpt>
      <trkpt lat="44.24563" lon="5.42241">
        <ele>1092.21</ele>
        <time>2020-03-15T11:10:45Z</time>
      </trkpt>
      <trkpt lat="44.24559" lon="5.42244">
        <ele>1090.82</ele>
        <time>2020-03-15T11:10:49Z</time>
      </trkpt>
      <trkpt lat="44.24536" lon="5.42262">
        <ele>1088.27</ele>
        <time>2020-03-15T11:11:11Z</time>
      </trkpt>
      <trkpt lat="44.24534" lon="5.42265">
        <ele>1087.77</ele>
        <time>2020-03-15T11:11:14Z</time>
      </trkpt>
      <trkpt lat="44.2453" lon="5.42269">
        <ele>1087.2</ele>
        <time>2020-03-15T11:11:18Z</time>
      </trkpt>
      <trkpt lat="44.24523" lon="5.42275">
        <ele>1086.04</ele>
        <time>2020-03-15T11:11:45Z</time>
      </trkpt>
      <trkpt lat="44.24523" lon="5.42276">
        <ele>1086.02</ele>
        <time>2020-03-15T11:11:46Z</time>
      </trkpt>
      <trkpt lat="44.24518" lon="5.4228">
        <ele>1085.41</ele>
        <time>2020-03-15T11:11:52Z</time>
      </trkpt>
      <trkpt lat="44.24511" lon="5.42284">
        <ele>1084.2</ele>
        <time>2020-03-15T11:12:50Z</time>
      </trkpt>
      <trkpt lat="44.24511" lon="5.42284">
        <ele>1083.85</ele>
        <time>2020-03-15T11:13:23Z</time>
      </trkpt>
      <trkpt lat="44.24511" lon="5.42285">
        <ele>1083.88</ele>
        <time>2020-03-15T11:14:01Z</time>
      </trkpt>
      <trkpt lat="44.24512" lon="5.42284">
        <ele>1083.65</ele>
        <time>2020-03-15T11:17:26Z</time>
      </trkpt>
      <trkpt lat="44.24511" lon="5.42284">
        <ele>1088.26</ele>
        <time>2020-03-15T11:50:27Z</time>
      </trkpt>
      <trkpt lat="44.24508" lon="5.42285">
        <ele>1087.61</ele>
        <time>2020-03-15T11:53:34Z</time>
      </trkpt>
      <trkpt lat="44.24497" lon="5.42292">
        <ele>1085.63</ele>
        <time>2020-03-15T11:53:56Z</time>
      </trkpt>
      <trkpt lat="44.24495" lon="5.42293">
        <ele>1085.44</ele>
        <time>2020-03-15T11:53:59Z</time>
      </trkpt>
      <trkpt lat="44.2449" lon="5.42299">
        <ele>1083.48</ele>
        <time>2020-03-15T11:54:05Z</time>
      </trkpt>
      <trkpt lat="44.24478" lon="5.4231">
        <ele>1083.31</ele>
        <time>2020-03-15T11:54:27Z</time>
      </trkpt>
      <trkpt lat="44.24474" lon="5.42314">
        <ele>1083.07</ele>
        <time>2020-03-15T11:54:35Z</time>
      </trkpt>
      <trkpt lat="44.24455" lon="5.42334">
        <ele>1081.77</ele>
        <time>2020-03-15T11:54:58Z</time>
      </trkpt>
      <trkpt lat="44.24446" lon="5.42344">
        <ele>1081.64</ele>
        <time>2020-03-15T11:55:17Z</time>
      </trkpt>
      <trkpt lat="44.24443" lon="5.42346">
        <ele>1080.54</ele>
        <time>2020-03-15T11:55:48Z</time>
      </trkpt>
      <trkpt lat="44.24434" lon="5.42357">
        <ele>1079.85</ele>
        <time>2020-03-15T11:56:09Z</time>
      </trkpt>
      <trkpt lat="44.24418" lon="5.42377">
        <ele>1079.44</ele>
        <time>2020-03-15T11:56:31Z</time>
      </trkpt>
      <trkpt lat="44.24405" lon="5.42394">
        <ele>1077.21</ele>
        <time>2020-03-15T11:56:51Z</time>
      </trkpt>
      <trkpt lat="44.24387" lon="5.4241">
        <ele>1076.56</ele>
        <time>2020-03-15T11:57:09Z</time>
      </trkpt>
      <trkpt lat="44.24358" lon="5.42437">
        <ele>1076.51</ele>
        <time>2020-03-15T11:57:41Z</time>
      </trkpt>
      <trkpt lat="44.24338" lon="5.42455">
        <ele>1076.76</ele>
        <time>2020-03-15T11:57:57Z</time>
      </trkpt>
      <trkpt lat="44.24336" lon="5.42457">
        <ele>1076.79</ele>
        <time>2020-03-15T11:57:59Z</time>
      </trkpt>
      <trkpt lat="44.24314" lon="5.42479">
        <ele>1076.3</ele>
        <time>2020-03-15T11:58:20Z</time>
      </trkpt>
      <trkpt lat="44.24292" lon="5.42497">
        <ele>1077.36</ele>
        <time>2020-03-15T11:58:43Z</time>
      </trkpt>
      <trkpt lat="44.24275" lon="5.42505">
        <ele>1076.96</ele>
        <time>2020-03-15T11:59:03Z</time>
      </trkpt>
      <trkpt lat="44.24258" lon="5.42514">
        <ele>1077.97</ele>
        <time>2020-03-15T11:59:24Z</time>
      </trkpt>
      <trkpt lat="44.24254" lon="5.42519">
        <ele>1078.03</ele>
        <time>2020-03-15T11:59:26Z</time>
      </trkpt>
      <trkpt lat="44.24251" lon="5.42522">
        <ele>1078.05</ele>
        <time>2020-03-15T11:59:28Z</time>
      </trkpt>
      <trkpt lat="44.2423" lon="5.4254">
        <ele>1076.82</ele>
        <time>2020-03-15T11:59:47Z</time>
      </trkpt>
      <trkpt lat="44.24214" lon="5.42567">
        <ele>1075.23</ele>
        <time>2020-03-15T12:00:07Z</time>
      </trkpt>
      <trkpt lat="44.2421" lon="5.42571">
        <ele>1074.47</ele>
        <time>2020-03-15T12:00:11Z</time>
      </trkpt>
      <trkpt lat="44.24205" lon="5.42578">
        <ele>1074.47</ele>
        <time>2020-03-15T12:00:16Z</time>
      </trkpt>
      <trkpt lat="44.24203" lon="5.42582">
        <ele>1073.11</ele>
        <time>2020-03-15T12:00:19Z</time>
      </trkpt>
      <trkpt lat="44.24202" lon="5.42583">
        <ele>1073.18</ele>
        <time>2020-03-15T12:00:20Z</time>
      </trkpt>
      <trkpt lat="44.24174" lon="5.42598">
        <ele>1069.64</ele>
        <time>2020-03-15T12:00:38Z</time>
      </trkpt>
      <trkpt lat="44.24174" lon="5.42598">
        <ele>1069.87</ele>
        <time>2020-03-15T12:00:40Z</time>
      </trkpt>
      <trkpt lat="44.24172" lon="5.42599">
        <ele>1069.74</ele>
        <time>2020-03-15T12:00:42Z</time>
      </trkpt>
      <trkpt lat="44.24149" lon="5.42623">
        <ele>1066.62</ele>
        <time>2020-03-15T12:01:05Z</time>
      </trkpt>
      <trkpt lat="44.24128" lon="5.42643">
        <ele>1062.92</ele>
        <time>2020-03-15T12:01:27Z</time>
      </trkpt>
      <trkpt lat="44.24106" lon="5.42656">
        <ele>1059.07</ele>
        <time>2020-03-15T12:01:49Z</time>
      </trkpt>
      <trkpt lat="44.24105" lon="5.42657">
        <ele>1058.78</ele>
        <time>2020-03-15T12:01:50Z</time>
      </trkpt>
      <trkpt lat="44.24102" lon="5.4266">
        <ele>1057.99</ele>
        <time>2020-03-15T12:02:01Z</time>
      </trkpt>
      <trkpt lat="44.241" lon="5.42662">
        <ele>1057.5</ele>
        <time>2020-03-15T12:02:03Z</time>
      </trkpt>
      <trkpt lat="44.24093" lon="5.42665">
        <ele>1056.6</ele>
        <time>2020-03-15T12:02:10Z</time>
      </trkpt>
      <trkpt lat="44.24078" lon="5.42669">
        <ele>1053.84</ele>
        <time>2020-03-15T12:02:23Z</time>
      </trkpt>
      <trkpt lat="44.24047" lon="5.42678">
        <ele>1051.53</ele>
        <time>2020-03-15T12:02:49Z</time>
      </trkpt>
      <trkpt lat="44.24023" lon="5.42683">
        <ele>1050.08</ele>
        <time>2020-03-15T12:03:10Z</time>
      </trkpt>
      <trkpt lat="44.24" lon="5.42686">
        <ele>1048.61</ele>
        <time>2020-03-15T12:03:29Z</time>
      </trkpt>
      <trkpt lat="44.23977" lon="5.4269">
        <ele>1046.28</ele>
        <time>2020-03-15T12:03:49Z</time>
      </trkpt>
      <trkpt lat="44.23952" lon="5.42698">
        <ele>1044.71</ele>
        <time>2020-03-15T12:04:10Z</time>
      </trkpt>
      <trkpt lat="44.23937" lon="5.42701">
        <ele>1041.63</ele>
        <time>2020-03-15T12:04:25Z</time>
      </trkpt>
      <trkpt lat="44.23935" lon="5.42701">
        <ele>1041.69</ele>
        <time>2020-03-15T12:04:27Z</time>
      </trkpt>
      <trkpt lat="44.23923" lon="5.427">
        <ele>1041.13</ele>
        <time>2020-03-15T12:04:37Z</time>
      </trkpt>
      <trkpt lat="44.23917" lon="5.427">
        <ele>1041.47</ele>
        <time>2020-03-15T12:04:42Z</time>
      </trkpt>
      <trkpt lat="44.23908" lon="5.427">
        <ele>1039</ele>
        <time>2020-03-15T12:04:50Z</time>
      </trkpt>
      <trkpt lat="44.23902" lon="5.42702">
        <ele>1040.01</ele>
        <time>2020-03-15T12:05:01Z</time>
      </trkpt>
      <trkpt lat="44.23885" lon="5.42706">
        <ele>1037.04</ele>
        <time>2020-03-15T12:05:16Z</time>
      </trkpt>
      <trkpt lat="44.23882" lon="5.42707">
        <ele>1035.67</ele>
        <time>2020-03-15T12:05:19Z</time>
      </trkpt>
      <trkpt lat="44.23878" lon="5.42707">
        <ele>1034.65</ele>
        <time>2020-03-15T12:05:23Z</time>
      </trkpt>
      <trkpt lat="44.23874" lon="5.42708">
        <ele>1034.2</ele>
        <time>2020-03-15T12:05:27Z</time>
      </trkpt>
      <trkpt lat="44.23869" lon="5.4271">
        <ele>1031.65</ele>
        <time>2020-03-15T12:05:32Z</time>
      </trkpt>
      <trkpt lat="44.23866" lon="5.4271">
        <ele>1031.84</ele>
        <time>2020-03-15T12:05:35Z</time>
      </trkpt>
      <trkpt lat="44.23861" lon="5.42711">
        <ele>1030.57</ele>
        <time>2020-03-15T12:05:39Z</time>
      </trkpt>
      <trkpt lat="44.23843" lon="5.42711">
        <ele>1027.63</ele>
        <time>2020-03-15T12:05:56Z</time>
      </trkpt>
      <trkpt lat="44.2384" lon="5.42711">
        <ele>1026.38</ele>
        <time>2020-03-15T12:05:59Z</time>
      </trkpt>
      <trkpt lat="44.23818" lon="5.42706">
        <ele>1025.08</ele>
        <time>2020-03-15T12:06:17Z</time>
      </trkpt>
      <trkpt lat="44.23809" lon="5.42705">
        <ele>1024.25</ele>
        <time>2020-03-15T12:06:25Z</time>
      </trkpt>
      <trkpt lat="44.23801" lon="5.42705">
        <ele>1024.35</ele>
        <time>2020-03-15T12:06:32Z</time>
      </trkpt>
      <trkpt lat="44.2379" lon="5.42705">
        <ele>1021.31</ele>
        <time>2020-03-15T12:06:45Z</time>
      </trkpt>
      <trkpt lat="44.23788" lon="5.42705">
        <ele>1019.65</ele>
        <time>2020-03-15T12:06:48Z</time>
      </trkpt>
      <trkpt lat="44.23787" lon="5.42705">
        <ele>1020.42</ele>
        <time>2020-03-15T12:06:49Z</time>
      </trkpt>
      <trkpt lat="44.23779" lon="5.42704">
        <ele>1018.22</ele>
        <time>2020-03-15T12:06:58Z</time>
      </trkpt>
      <trkpt lat="44.23775" lon="5.42704">
        <ele>1016.36</ele>
        <time>2020-03-15T12:07:03Z</time>
      </trkpt>
      <trkpt lat="44.23769" lon="5.42703">
        <ele>1013.22</ele>
        <time>2020-03-15T12:07:10Z</time>
      </trkpt>
      <trkpt lat="44.23768" lon="5.42703">
        <ele>1013.63</ele>
        <time>2020-03-15T12:07:11Z</time>
      </trkpt>
      <trkpt lat="44.23767" lon="5.42703">
        <ele>1013.71</ele>
        <time>2020-03-15T12:07:12Z</time>
      </trkpt>
      <trkpt lat="44.23764" lon="5.42702">
        <ele>1012.42</ele>
        <time>2020-03-15T12:07:15Z</time>
      </trkpt>
      <trkpt lat="44.2376" lon="5.427">
        <ele>1013.13</ele>
        <time>2020-03-15T12:07:21Z</time>
      </trkpt>
      <trkpt lat="44.23749" lon="5.42685">
        <ele>1008.91</ele>
        <time>2020-03-15T12:07:40Z</time>
      </trkpt>
      <trkpt lat="44.23747" lon="5.42679">
        <ele>1008.55</ele>
        <time>2020-03-15T12:07:57Z</time>
      </trkpt>
      <trkpt lat="44.23745" lon="5.42686">
        <ele>1009.75</ele>
        <time>2020-03-15T12:08:02Z</time>
      </trkpt>
      <trkpt lat="44.23744" lon="5.42692">
        <ele>1010.42</ele>
        <time>2020-03-15T12:08:06Z</time>
      </trkpt>
      <trkpt lat="44.23743" lon="5.42696">
        <ele>1010.26</ele>
        <time>2020-03-15T12:08:10Z</time>
      </trkpt>
      <trkpt lat="44.23742" lon="5.42704">
        <ele>1009.11</ele>
        <time>2020-03-15T12:08:31Z</time>
      </trkpt>
      <trkpt lat="44.23738" lon="5.42706">
        <ele>1007.87</ele>
        <time>2020-03-15T12:08:38Z</time>
      </trkpt>
      <trkpt lat="44.23725" lon="5.42712">
        <ele>1004.49</ele>
        <time>2020-03-15T12:08:50Z</time>
      </trkpt>
      <trkpt lat="44.23721" lon="5.4271">
        <ele>1004.03</ele>
        <time>2020-03-15T12:09:18Z</time>
      </trkpt>
      <trkpt lat="44.2371" lon="5.42709">
        <ele>1000.73</ele>
        <time>2020-03-15T12:09:36Z</time>
      </trkpt>
      <trkpt lat="44.23695" lon="5.42693">
        <ele>999.67</ele>
        <time>2020-03-15T12:10:01Z</time>
      </trkpt>
      <trkpt lat="44.23692" lon="5.42691">
        <ele>999.7</ele>
        <time>2020-03-15T12:10:05Z</time>
      </trkpt>
      <trkpt lat="44.2369" lon="5.4269">
        <ele>999.54</ele>
        <time>2020-03-15T12:10:07Z</time>
      </trkpt>
      <trkpt lat="44.23686" lon="5.42686">
        <ele>998.88</ele>
        <time>2020-03-15T12:10:11Z</time>
      </trkpt>
      <trkpt lat="44.2368" lon="5.42682">
        <ele>998.87</ele>
        <time>2020-03-15T12:10:20Z</time>
      </trkpt>
      <trkpt lat="44.23671" lon="5.42674">
        <ele>995.78</ele>
        <time>2020-03-15T12:10:35Z</time>
      </trkpt>
      <trkpt lat="44.23671" lon="5.42672">
        <ele>994.83</ele>
        <time>2020-03-15T12:10:37Z</time>
      </trkpt>
      <trkpt lat="44.23667" lon="5.42663">
        <ele>993.13</ele>
        <time>2020-03-15T12:10:48Z</time>
      </trkpt>
      <trkpt lat="44.23663" lon="5.42648">
        <ele>989.57</ele>
        <time>2020-03-15T12:11:00Z</time>
      </trkpt>
      <trkpt lat="44.23658" lon="5.42637">
        <ele>986.42</ele>
        <time>2020-03-15T12:11:12Z</time>
      </trkpt>
      <trkpt lat="44.23653" lon="5.42619">
        <ele>983.4</ele>
        <time>2020-03-15T12:11:27Z</time>
      </trkpt>
      <trkpt lat="44.23652" lon="5.42612">
        <ele>982.04</ele>
        <time>2020-03-15T12:11:32Z</time>
      </trkpt>
      <trkpt lat="44.23654" lon="5.42595">
        <ele>980.04</ele>
        <time>2020-03-15T12:11:47Z</time>
      </trkpt>
      <trkpt lat="44.23652" lon="5.42576">
        <ele>976.68</ele>
        <time>2020-03-15T12:12:04Z</time>
      </trkpt>
      <trkpt lat="44.23649" lon="5.42569">
        <ele>973.74</ele>
        <time>2020-03-15T12:12:13Z</time>
      </trkpt>
      <trkpt lat="44.23648" lon="5.42562">
        <ele>970.81</ele>
        <time>2020-03-15T12:12:20Z</time>
      </trkpt>
      <trkpt lat="44.23646" lon="5.42551">
        <ele>967.75</ele>
        <time>2020-03-15T12:12:30Z</time>
      </trkpt>
      <trkpt lat="44.23641" lon="5.42543">
        <ele>965.31</ele>
        <time>2020-03-15T12:12:37Z</time>
      </trkpt>
      <trkpt lat="44.23634" lon="5.42531">
        <ele>962.23</ele>
        <time>2020-03-15T12:12:47Z</time>
      </trkpt>
      <trkpt lat="44.23632" lon="5.42523">
        <ele>959.2</ele>
        <time>2020-03-15T12:12:55Z</time>
      </trkpt>
      <trkpt lat="44.23629" lon="5.42513">
        <ele>956.16</ele>
        <time>2020-03-15T12:13:04Z</time>
      </trkpt>
      <trkpt lat="44.23624" lon="5.42503">
        <ele>954.01</ele>
        <time>2020-03-15T12:13:11Z</time>
      </trkpt>
      <trkpt lat="44.23617" lon="5.42486">
        <ele>953.4</ele>
        <time>2020-03-15T12:13:41Z</time>
      </trkpt>
      <trkpt lat="44.23617" lon="5.42485">
        <ele>953.05</ele>
        <time>2020-03-15T12:13:42Z</time>
      </trkpt>
      <trkpt lat="44.23617" lon="5.42478">
        <ele>953.09</ele>
        <time>2020-03-15T12:13:46Z</time>
      </trkpt>
      <trkpt lat="44.23615" lon="5.42469">
        <ele>950.81</ele>
        <time>2020-03-15T12:13:53Z</time>
      </trkpt>
      <trkpt lat="44.23594" lon="5.42462">
        <ele>947.32</ele>
        <time>2020-03-15T12:14:10Z</time>
      </trkpt>
      <trkpt lat="44.23592" lon="5.42459">
        <ele>947.02</ele>
        <time>2020-03-15T12:14:13Z</time>
      </trkpt>
      <trkpt lat="44.23581" lon="5.42447">
        <ele>943.53</ele>
        <time>2020-03-15T12:14:26Z</time>
      </trkpt>
      <trkpt lat="44.2358" lon="5.42446">
        <ele>942.45</ele>
        <time>2020-03-15T12:14:29Z</time>
      </trkpt>
      <trkpt lat="44.23576" lon="5.42442">
        <ele>941.54</ele>
        <time>2020-03-15T12:14:33Z</time>
      </trkpt>
      <trkpt lat="44.23574" lon="5.4244">
        <ele>941.2</ele>
        <time>2020-03-15T12:14:35Z</time>
      </trkpt>
      <trkpt lat="44.23558" lon="5.42445">
        <ele>938.33</ele>
        <time>2020-03-15T12:14:57Z</time>
      </trkpt>
      <trkpt lat="44.23555" lon="5.42444">
        <ele>938.26</ele>
        <time>2020-03-15T12:15:01Z</time>
      </trkpt>
      <trkpt lat="44.2355" lon="5.42443">
        <ele>937.57</ele>
        <time>2020-03-15T12:15:07Z</time>
      </trkpt>
      <trkpt lat="44.23533" lon="5.42435">
        <ele>934.92</ele>
        <time>2020-03-15T12:15:28Z</time>
      </trkpt>
      <trkpt lat="44.2353" lon="5.42434">
        <ele>934.8</ele>
        <time>2020-03-15T12:15:31Z</time>
      </trkpt>
      <trkpt lat="44.23512" lon="5.4243">
        <ele>931.77</ele>
        <time>2020-03-15T12:15:50Z</time>
      </trkpt>
      <trkpt lat="44.23507" lon="5.42425">
        <ele>930.59</ele>
        <time>2020-03-15T12:16:15Z</time>
      </trkpt>
      <trkpt lat="44.23509" lon="5.42424">
        <ele>931.89</ele>
        <time>2020-03-15T12:16:55Z</time>
      </trkpt>
      <trkpt lat="44.23497" lon="5.4242">
        <ele>928.88</ele>
        <time>2020-03-15T12:17:06Z</time>
      </trkpt>
      <trkpt lat="44.23495" lon="5.42419">
        <ele>927.38</ele>
        <time>2020-03-15T12:17:08Z</time>
      </trkpt>
      <trkpt lat="44.23485" lon="5.42412">
        <ele>924.26</ele>
        <time>2020-03-15T12:17:17Z</time>
      </trkpt>
      <trkpt lat="44.23477" lon="5.42406">
        <ele>921.14</ele>
        <time>2020-03-15T12:17:26Z</time>
      </trkpt>
      <trkpt lat="44.23475" lon="5.42406">
        <ele>919.86</ele>
        <time>2020-03-15T12:17:28Z</time>
      </trkpt>
      <trkpt lat="44.23467" lon="5.42404">
        <ele>917.05</ele>
        <time>2020-03-15T12:17:37Z</time>
      </trkpt>
      <trkpt lat="44.23466" lon="5.42403">
        <ele>916.55</ele>
        <time>2020-03-15T12:17:38Z</time>
      </trkpt>
      <trkpt lat="44.23463" lon="5.42404">
        <ele>915.55</ele>
        <time>2020-03-15T12:17:41Z</time>
      </trkpt>
      <trkpt lat="44.23449" lon="5.424">
        <ele>912.55</ele>
        <time>2020-03-15T12:17:56Z</time>
      </trkpt>
      <trkpt lat="44.23447" lon="5.424">
        <ele>911.28</ele>
        <time>2020-03-15T12:18:00Z</time>
      </trkpt>
      <trkpt lat="44.23439" lon="5.42403">
        <ele>907.66</ele>
        <time>2020-03-15T12:18:11Z</time>
      </trkpt>
      <trkpt lat="44.23438" lon="5.42403">
        <ele>907.38</ele>
        <time>2020-03-15T12:18:12Z</time>
      </trkpt>
      <trkpt lat="44.23432" lon="5.42406">
        <ele>903.63</ele>
        <time>2020-03-15T12:18:21Z</time>
      </trkpt>
      <trkpt lat="44.23431" lon="5.42407">
        <ele>903.59</ele>
        <time>2020-03-15T12:18:22Z</time>
      </trkpt>
      <trkpt lat="44.23424" lon="5.42413">
        <ele>900.41</ele>
        <time>2020-03-15T12:18:35Z</time>
      </trkpt>
      <trkpt lat="44.23418" lon="5.4242">
        <ele>897.16</ele>
        <time>2020-03-15T12:18:45Z</time>
      </trkpt>
      <trkpt lat="44.23415" lon="5.42426">
        <ele>893.96</ele>
        <time>2020-03-15T12:19:18Z</time>
      </trkpt>
      <trkpt lat="44.23414" lon="5.42426">
        <ele>892.93</ele>
        <time>2020-03-15T12:19:21Z</time>
      </trkpt>
      <trkpt lat="44.23409" lon="5.42429">
        <ele>889.35</ele>
        <time>2020-03-15T12:19:34Z</time>
      </trkpt>
      <trkpt lat="44.23404" lon="5.4243">
        <ele>886.05</ele>
        <time>2020-03-15T12:19:54Z</time>
      </trkpt>
      <trkpt lat="44.23403" lon="5.42429">
        <ele>885.93</ele>
        <time>2020-03-15T12:19:55Z</time>
      </trkpt>
      <trkpt lat="44.23401" lon="5.42428">
        <ele>884.66</ele>
        <time>2020-03-15T12:19:57Z</time>
      </trkpt>
      <trkpt lat="44.23398" lon="5.42427">
        <ele>882.86</ele>
        <time>2020-03-15T12:20:02Z</time>
      </trkpt>
      <trkpt lat="44.23393" lon="5.42424">
        <ele>881.14</ele>
        <time>2020-03-15T12:20:11Z</time>
      </trkpt>
      <trkpt lat="44.23388" lon="5.4242">
        <ele>879.34</ele>
        <time>2020-03-15T12:20:18Z</time>
      </trkpt>
      <trkpt lat="44.23385" lon="5.4242">
        <ele>878.19</ele>
        <time>2020-03-15T12:20:21Z</time>
      </trkpt>
      <trkpt lat="44.23379" lon="5.42421">
        <ele>876.35</ele>
        <time>2020-03-15T12:20:26Z</time>
      </trkpt>
      <trkpt lat="44.23374" lon="5.42423">
        <ele>875.11</ele>
        <time>2020-03-15T12:20:48Z</time>
      </trkpt>
      <trkpt lat="44.23373" lon="5.42425">
        <ele>875.35</ele>
        <time>2020-03-15T12:21:17Z</time>
      </trkpt>
      <trkpt lat="44.23368" lon="5.4243">
        <ele>871.94</ele>
        <time>2020-03-15T12:21:31Z</time>
      </trkpt>
      <trkpt lat="44.2336" lon="5.42437">
        <ele>869.95</ele>
        <time>2020-03-15T12:21:35Z</time>
      </trkpt>
      <trkpt lat="44.23335" lon="5.42451">
        <ele>866.46</ele>
        <time>2020-03-15T12:21:47Z</time>
      </trkpt>
      <trkpt lat="44.23326" lon="5.42445">
        <ele>863.3</ele>
        <time>2020-03-15T12:22:00Z</time>
      </trkpt>
      <trkpt lat="44.23298" lon="5.42455">
        <ele>860.04</ele>
        <time>2020-03-15T12:22:09Z</time>
      </trkpt>
      <trkpt lat="44.23282" lon="5.42464">
        <ele>856.64</ele>
        <time>2020-03-15T12:22:23Z</time>
      </trkpt>
      <trkpt lat="44.23245" lon="5.42489">
        <ele>856.42</ele>
        <time>2020-03-15T12:22:54Z</time>
      </trkpt>
      <trkpt lat="44.2323" lon="5.42503">
        <ele>853.31</ele>
        <time>2020-03-15T12:23:11Z</time>
      </trkpt>
      <trkpt lat="44.23221" lon="5.42524">
        <ele>850.06</ele>
        <time>2020-03-15T12:23:28Z</time>
      </trkpt>
      <trkpt lat="44.23211" lon="5.42534">
        <ele>849.85</ele>
        <time>2020-03-15T12:23:29Z</time>
      </trkpt>
      <trkpt lat="44.23193" lon="5.42557">
        <ele>846.64</ele>
        <time>2020-03-15T12:23:46Z</time>
      </trkpt>
      <trkpt lat="44.2317" lon="5.42585">
        <ele>843.52</ele>
        <time>2020-03-15T12:24:05Z</time>
      </trkpt>
      <trkpt lat="44.23162" lon="5.42605">
        <ele>842.79</ele>
        <time>2020-03-15T12:24:06Z</time>
      </trkpt>
      <trkpt lat="44.23161" lon="5.42624">
        <ele>842.29</ele>
        <time>2020-03-15T12:24:12Z</time>
      </trkpt>
      <trkpt lat="44.2316" lon="5.42643">
        <ele>818.54</ele>
        <time>2020-03-15T12:30:32Z</time>
      </trkpt>
      <trkpt lat="44.23161" lon="5.42646">
        <ele>818.18</ele>
        <time>2020-03-15T12:30:35Z</time>
      </trkpt>
      <trkpt lat="44.23163" lon="5.42677">
        <ele>816.81</ele>
        <time>2020-03-15T12:30:57Z</time>
      </trkpt>
      <trkpt lat="44.23161" lon="5.42682">
        <ele>817.26</ele>
        <time>2020-03-15T12:31:02Z</time>
      </trkpt>
      <trkpt lat="44.23169" lon="5.42706">
        <ele>819.43</ele>
        <time>2020-03-15T12:31:21Z</time>
      </trkpt>
      <trkpt lat="44.23171" lon="5.42723">
        <ele>820.7</ele>
        <time>2020-03-15T12:31:33Z</time>
      </trkpt>
      <trkpt lat="44.23184" lon="5.42746">
        <ele>822.25</ele>
        <time>2020-03-15T12:31:55Z</time>
      </trkpt>
      <trkpt lat="44.23202" lon="5.42775">
        <ele>824.02</ele>
        <time>2020-03-15T12:32:21Z</time>
      </trkpt>
      <trkpt lat="44.23207" lon="5.4278">
        <ele>825.46</ele>
        <time>2020-03-15T12:32:28Z</time>
      </trkpt>
      <trkpt lat="44.23214" lon="5.42791">
        <ele>826.08</ele>
        <time>2020-03-15T12:32:40Z</time>
      </trkpt>
      <trkpt lat="44.23213" lon="5.42798">
        <ele>826.15</ele>
        <time>2020-03-15T12:32:45Z</time>
      </trkpt>
      <trkpt lat="44.23203" lon="5.42809">
        <ele>824.86</ele>
        <time>2020-03-15T12:32:58Z</time>
      </trkpt>
      <trkpt lat="44.23195" lon="5.42799">
        <ele>824.86</ele>
        <time>2020-03-15T12:33:09Z</time>
      </trkpt>
      <trkpt lat="44.23156" lon="5.42789">
        <ele>815.65</ele>
        <time>2020-03-15T12:35:19Z</time>
      </trkpt>
      <trkpt lat="44.23155" lon="5.42788">
        <ele>814.97</ele>
        <time>2020-03-15T12:35:50Z</time>
      </trkpt>
      <trkpt lat="44.23151" lon="5.42788">
        <ele>815.85</ele>
        <time>2020-03-15T12:38:55Z</time>
      </trkpt>
      <trkpt lat="44.23148" lon="5.42787">
        <ele>816.99</ele>
        <time>2020-03-15T12:42:08Z</time>
      </trkpt>
      <trkpt lat="44.23115" lon="5.42792">
        <ele>816.89</ele>
        <time>2020-03-15T12:42:38Z</time>
      </trkpt>
      <trkpt lat="44.23106" lon="5.42789">
        <ele>816.49</ele>
        <time>2020-03-15T12:42:45Z</time>
      </trkpt>
      <trkpt lat="44.23073" lon="5.4276">
        <ele>816.46</ele>
        <time>2020-03-15T12:43:14Z</time>
      </trkpt>
      <trkpt lat="44.23058" lon="5.4275">
        <ele>816.14</ele>
        <time>2020-03-15T12:43:29Z</time>
      </trkpt>
      <trkpt lat="44.23055" lon="5.42749">
        <ele>816.51</ele>
        <time>2020-03-15T12:43:32Z</time>
      </trkpt>
      <trkpt lat="44.2305" lon="5.42747">
        <ele>816.09</ele>
        <time>2020-03-15T12:43:39Z</time>
      </trkpt>
      <trkpt lat="44.23048" lon="5.42747">
        <ele>815.37</ele>
        <time>2020-03-15T12:43:41Z</time>
      </trkpt>
      <trkpt lat="44.23027" lon="5.42739">
        <ele>816</ele>
        <time>2020-03-15T12:44:02Z</time>
      </trkpt>
      <trkpt lat="44.23004" lon="5.4273">
        <ele>814.25</ele>
        <time>2020-03-15T12:44:24Z</time>
      </trkpt>
      <trkpt lat="44.23002" lon="5.42729">
        <ele>813.53</ele>
        <time>2020-03-15T12:44:40Z</time>
      </trkpt>
      <trkpt lat="44.22971" lon="5.42726">
        <ele>812.13</ele>
        <time>2020-03-15T12:45:06Z</time>
      </trkpt>
      <trkpt lat="44.22946" lon="5.4272">
        <ele>808.58</ele>
        <time>2020-03-15T12:45:27Z</time>
      </trkpt>
      <trkpt lat="44.22944" lon="5.4272">
        <ele>807.96</ele>
        <time>2020-03-15T12:45:29Z</time>
      </trkpt>
      <trkpt lat="44.22909" lon="5.42712">
        <ele>805.74</ele>
        <time>2020-03-15T12:45:57Z</time>
      </trkpt>
      <trkpt lat="44.22883" lon="5.42707">
        <ele>804.84</ele>
        <time>2020-03-15T12:46:19Z</time>
      </trkpt>
      <trkpt lat="44.2288" lon="5.42707">
        <ele>804.71</ele>
        <time>2020-03-15T12:46:30Z</time>
      </trkpt>
      <trkpt lat="44.22872" lon="5.42706">
        <ele>803.93</ele>
        <time>2020-03-15T12:46:37Z</time>
      </trkpt>
      <trkpt lat="44.22855" lon="5.42699">
        <ele>800.62</ele>
        <time>2020-03-15T12:46:51Z</time>
      </trkpt>
      <trkpt lat="44.22838" lon="5.42685">
        <ele>797.53</ele>
        <time>2020-03-15T12:47:07Z</time>
      </trkpt>
      <trkpt lat="44.22833" lon="5.4268">
        <ele>794.43</ele>
        <time>2020-03-15T12:47:23Z</time>
      </trkpt>
      <trkpt lat="44.22832" lon="5.42678">
        <ele>795.86</ele>
        <time>2020-03-15T12:48:05Z</time>
      </trkpt>
      <trkpt lat="44.22829" lon="5.42678">
        <ele>794.39</ele>
        <time>2020-03-15T12:48:44Z</time>
      </trkpt>
      <trkpt lat="44.22826" lon="5.42675">
        <ele>794.36</ele>
        <time>2020-03-15T12:48:47Z</time>
      </trkpt>
      <trkpt lat="44.22821" lon="5.42671">
        <ele>792.51</ele>
        <time>2020-03-15T12:48:51Z</time>
      </trkpt>
      <trkpt lat="44.22812" lon="5.42661">
        <ele>789.82</ele>
        <time>2020-03-15T12:49:02Z</time>
      </trkpt>
      <trkpt lat="44.2281" lon="5.4266">
        <ele>789.68</ele>
        <time>2020-03-15T12:49:04Z</time>
      </trkpt>
      <trkpt lat="44.22809" lon="5.42658">
        <ele>788.67</ele>
        <time>2020-03-15T12:49:06Z</time>
      </trkpt>
      <trkpt lat="44.22804" lon="5.42645">
        <ele>786.27</ele>
        <time>2020-03-15T12:49:19Z</time>
      </trkpt>
      <trkpt lat="44.22808" lon="5.42604">
        <ele>785.92</ele>
        <time>2020-03-15T12:49:46Z</time>
      </trkpt>
      <trkpt lat="44.22801" lon="5.42569">
        <ele>786.88</ele>
        <time>2020-03-15T12:50:09Z</time>
      </trkpt>
      <trkpt lat="44.228" lon="5.42566">
        <ele>787.27</ele>
        <time>2020-03-15T12:50:45Z</time>
      </trkpt>
      <trkpt lat="44.228" lon="5.42565">
        <ele>787.45</ele>
        <time>2020-03-15T12:51:22Z</time>
      </trkpt>
      <trkpt lat="44.2281" lon="5.42522">
        <ele>789.66</ele>
        <time>2020-03-15T12:51:51Z</time>
      </trkpt>
      <trkpt lat="44.22812" lon="5.42515">
        <ele>789</ele>
        <time>2020-03-15T12:51:58Z</time>
      </trkpt>
      <trkpt lat="44.22813" lon="5.42511">
        <ele>789.59</ele>
        <time>2020-03-15T12:52:01Z</time>
      </trkpt>
      <trkpt lat="44.22821" lon="5.42463">
        <ele>789.83</ele>
        <time>2020-03-15T12:52:30Z</time>
      </trkpt>
      <trkpt lat="44.22815" lon="5.42414">
        <ele>787.83</ele>
        <time>2020-03-15T12:53:00Z</time>
      </trkpt>
      <trkpt lat="44.22814" lon="5.42407">
        <ele>788.3</ele>
        <time>2020-03-15T12:53:05Z</time>
      </trkpt>
      <trkpt lat="44.22803" lon="5.42363">
        <ele>787.73</ele>
        <time>2020-03-15T12:53:34Z</time>
      </trkpt>
      <trkpt lat="44.22771" lon="5.42342">
        <ele>785.03</ele>
        <time>2020-03-15T12:54:02Z</time>
      </trkpt>
      <trkpt lat="44.22751" lon="5.4234">
        <ele>784.79</ele>
        <time>2020-03-15T12:54:27Z</time>
      </trkpt>
      <trkpt lat="44.2275" lon="5.4234">
        <ele>785.04</ele>
        <time>2020-03-15T12:54:29Z</time>
      </trkpt>
      <trkpt lat="44.22744" lon="5.42338">
        <ele>785.04</ele>
        <time>2020-03-15T12:54:35Z</time>
      </trkpt>
      <trkpt lat="44.22739" lon="5.4234">
        <ele>785.31</ele>
        <time>2020-03-15T12:54:39Z</time>
      </trkpt>
      <trkpt lat="44.22724" lon="5.42345">
        <ele>784.43</ele>
        <time>2020-03-15T12:54:52Z</time>
      </trkpt>
      <trkpt lat="44.2272" lon="5.42346">
        <ele>784.57</ele>
        <time>2020-03-15T12:54:55Z</time>
      </trkpt>
      <trkpt lat="44.22714" lon="5.42349">
        <ele>783.21</ele>
        <time>2020-03-15T12:55:06Z</time>
      </trkpt>
      <trkpt lat="44.22708" lon="5.4235">
        <ele>782.05</ele>
        <time>2020-03-15T12:55:11Z</time>
      </trkpt>
      <trkpt lat="44.22694" lon="5.42355">
        <ele>778.74</ele>
        <time>2020-03-15T12:55:22Z</time>
      </trkpt>
      <trkpt lat="44.22661" lon="5.42371">
        <ele>775.46</ele>
        <time>2020-03-15T12:55:47Z</time>
      </trkpt>
      <trkpt lat="44.2263" lon="5.42397">
        <ele>774.42</ele>
        <time>2020-03-15T12:56:15Z</time>
      </trkpt>
      <trkpt lat="44.22603" lon="5.42412">
        <ele>772.79</ele>
        <time>2020-03-15T12:56:41Z</time>
      </trkpt>
      <trkpt lat="44.22603" lon="5.42411">
        <ele>772.62</ele>
        <time>2020-03-15T12:56:42Z</time>
      </trkpt>
      <trkpt lat="44.22606" lon="5.42405">
        <ele>772.57</ele>
        <time>2020-03-15T12:56:58Z</time>
      </trkpt>
      <trkpt lat="44.22609" lon="5.42399">
        <ele>771.78</ele>
        <time>2020-03-15T12:57:04Z</time>
      </trkpt>
      <trkpt lat="44.22622" lon="5.4238">
        <ele>770.06</ele>
        <time>2020-03-15T12:57:20Z</time>
      </trkpt>
      <trkpt lat="44.22623" lon="5.42374">
        <ele>768.82</ele>
        <time>2020-03-15T12:57:25Z</time>
      </trkpt>
      <trkpt lat="44.22623" lon="5.42369">
        <ele>766.71</ele>
        <time>2020-03-15T12:57:30Z</time>
      </trkpt>
      <trkpt lat="44.22621" lon="5.42356">
        <ele>767.59</ele>
        <time>2020-03-15T12:57:50Z</time>
      </trkpt>
      <trkpt lat="44.22619" lon="5.42353">
        <ele>767.85</ele>
        <time>2020-03-15T12:57:55Z</time>
      </trkpt>
      <trkpt lat="44.22615" lon="5.42342">
        <ele>767.79</ele>
        <time>2020-03-15T12:58:05Z</time>
      </trkpt>
      <trkpt lat="44.22606" lon="5.4233">
        <ele>769.18</ele>
        <time>2020-03-15T12:58:26Z</time>
      </trkpt>
      <trkpt lat="44.22603" lon="5.42328">
        <ele>768.53</ele>
        <time>2020-03-15T12:58:39Z</time>
      </trkpt>
      <trkpt lat="44.22599" lon="5.42326">
        <ele>768.53</ele>
        <time>2020-03-15T12:58:43Z</time>
      </trkpt>
      <trkpt lat="44.22591" lon="5.42326">
        <ele>768.65</ele>
        <time>2020-03-15T12:58:51Z</time>
      </trkpt>
      <trkpt lat="44.22571" lon="5.42333">
        <ele>769.94</ele>
        <time>2020-03-15T12:59:12Z</time>
      </trkpt>
      <trkpt lat="44.22559" lon="5.42324">
        <ele>772.42</ele>
        <time>2020-03-15T12:59:33Z</time>
      </trkpt>
      <trkpt lat="44.22562" lon="5.4228">
        <ele>774.87</ele>
        <time>2020-03-15T13:00:04Z</time>
      </trkpt>
      <trkpt lat="44.22563" lon="5.4227">
        <ele>775.34</ele>
        <time>2020-03-15T13:00:09Z</time>
      </trkpt>
      <trkpt lat="44.22572" lon="5.42226">
        <ele>778.05</ele>
        <time>2020-03-15T13:00:33Z</time>
      </trkpt>
      <trkpt lat="44.22579" lon="5.42211">
        <ele>778.91</ele>
        <time>2020-03-15T13:00:46Z</time>
      </trkpt>
      <trkpt lat="44.22582" lon="5.42205">
        <ele>778.84</ele>
        <time>2020-03-15T13:00:50Z</time>
      </trkpt>
      <trkpt lat="44.22584" lon="5.42156">
        <ele>780.72</ele>
        <time>2020-03-15T13:01:16Z</time>
      </trkpt>
      <trkpt lat="44.22586" lon="5.42122">
        <ele>782.27</ele>
        <time>2020-03-15T13:01:37Z</time>
      </trkpt>
      <trkpt lat="44.22589" lon="5.42099">
        <ele>784.31</ele>
        <time>2020-03-15T13:01:56Z</time>
      </trkpt>
      <trkpt lat="44.22592" lon="5.42088">
        <ele>784.8</ele>
        <time>2020-03-15T13:02:01Z</time>
      </trkpt>
      <trkpt lat="44.22613" lon="5.42049">
        <ele>784.83</ele>
        <time>2020-03-15T13:02:25Z</time>
      </trkpt>
      <trkpt lat="44.22615" lon="5.42046">
        <ele>785.34</ele>
        <time>2020-03-15T13:02:28Z</time>
      </trkpt>
      <trkpt lat="44.22627" lon="5.42002">
        <ele>787.46</ele>
        <time>2020-03-15T13:02:53Z</time>
      </trkpt>
      <trkpt lat="44.22637" lon="5.41961">
        <ele>789.17</ele>
        <time>2020-03-15T13:03:20Z</time>
      </trkpt>
      <trkpt lat="44.22639" lon="5.41956">
        <ele>788.96</ele>
        <time>2020-03-15T13:03:24Z</time>
      </trkpt>
      <trkpt lat="44.22647" lon="5.41925">
        <ele>786.46</ele>
        <time>2020-03-15T13:03:44Z</time>
      </trkpt>
      <trkpt lat="44.22647" lon="5.41915">
        <ele>785.93</ele>
        <time>2020-03-15T13:03:50Z</time>
      </trkpt>
      <trkpt lat="44.22647" lon="5.41908">
        <ele>785.54</ele>
        <time>2020-03-15T13:03:54Z</time>
      </trkpt>
      <trkpt lat="44.22652" lon="5.41891">
        <ele>784.88</ele>
        <time>2020-03-15T13:04:05Z</time>
      </trkpt>
      <trkpt lat="44.22655" lon="5.41859">
        <ele>785.24</ele>
        <time>2020-03-15T13:04:24Z</time>
      </trkpt>
      <trkpt lat="44.22646" lon="5.41831">
        <ele>785.88</ele>
        <time>2020-03-15T13:04:44Z</time>
      </trkpt>
      <trkpt lat="44.22631" lon="5.41798">
        <ele>786.1</ele>
        <time>2020-03-15T13:05:04Z</time>
      </trkpt>
      <trkpt lat="44.22604" lon="5.41758">
        <ele>783.33</ele>
        <time>2020-03-15T13:05:33Z</time>
      </trkpt>
      <trkpt lat="44.22603" lon="5.41755">
        <ele>783.06</ele>
        <time>2020-03-15T13:05:36Z</time>
      </trkpt>
      <trkpt lat="44.22587" lon="5.41723">
        <ele>782.01</ele>
        <time>2020-03-15T13:06:06Z</time>
      </trkpt>
      <trkpt lat="44.22589" lon="5.41684">
        <ele>781.54</ele>
        <time>2020-03-15T13:06:31Z</time>
      </trkpt>
      <trkpt lat="44.22589" lon="5.4168">
        <ele>781.56</ele>
        <time>2020-03-15T13:06:33Z</time>
      </trkpt>
      <trkpt lat="44.22595" lon="5.4164">
        <ele>782.6</ele>
        <time>2020-03-15T13:06:59Z</time>
      </trkpt>
      <trkpt lat="44.22603" lon="5.41606">
        <ele>783.47</ele>
        <time>2020-03-15T13:07:19Z</time>
      </trkpt>
      <trkpt lat="44.2261" lon="5.41562">
        <ele>786.44</ele>
        <time>2020-03-15T13:07:44Z</time>
      </trkpt>
      <trkpt lat="44.22611" lon="5.41529">
        <ele>789.19</ele>
        <time>2020-03-15T13:08:05Z</time>
      </trkpt>
      <trkpt lat="44.22621" lon="5.41498">
        <ele>791.54</ele>
        <time>2020-03-15T13:08:26Z</time>
      </trkpt>
      <trkpt lat="44.22619" lon="5.41467">
        <ele>794.1</ele>
        <time>2020-03-15T13:08:46Z</time>
      </trkpt>
      <trkpt lat="44.22617" lon="5.41453">
        <ele>795.13</ele>
        <time>2020-03-15T13:08:55Z</time>
      </trkpt>
      <trkpt lat="44.22618" lon="5.41444">
        <ele>795.66</ele>
        <time>2020-03-15T13:09:01Z</time>
      </trkpt>
      <trkpt lat="44.22627" lon="5.41412">
        <ele>797.32</ele>
        <time>2020-03-15T13:09:19Z</time>
      </trkpt>
      <trkpt lat="44.22627" lon="5.41402">
        <ele>797.76</ele>
        <time>2020-03-15T13:09:25Z</time>
      </trkpt>
      <trkpt lat="44.22627" lon="5.414">
        <ele>797.89</ele>
        <time>2020-03-15T13:09:27Z</time>
      </trkpt>
      <trkpt lat="44.22626" lon="5.41362">
        <ele>799.51</ele>
        <time>2020-03-15T13:09:48Z</time>
      </trkpt>
      <trkpt lat="44.22627" lon="5.41348">
        <ele>800.03</ele>
        <time>2020-03-15T13:09:55Z</time>
      </trkpt>
      <trkpt lat="44.22632" lon="5.41326">
        <ele>801.71</ele>
        <time>2020-03-15T13:10:27Z</time>
      </trkpt>
      <trkpt lat="44.22632" lon="5.41298">
        <ele>802.32</ele>
        <time>2020-03-15T13:12:09Z</time>
      </trkpt>
      <trkpt lat="44.22631" lon="5.41297">
        <ele>802.35</ele>
        <time>2020-03-15T13:12:42Z</time>
      </trkpt>
      <trkpt lat="44.22631" lon="5.41273">
        <ele>806.81</ele>
        <time>2020-03-15T13:14:24Z</time>
      </trkpt>
      <trkpt lat="44.22629" lon="5.41251">
        <ele>809.92</ele>
        <time>2020-03-15T13:14:42Z</time>
      </trkpt>
      <trkpt lat="44.22622" lon="5.41226">
        <ele>813.07</ele>
        <time>2020-03-15T13:15:02Z</time>
      </trkpt>
      <trkpt lat="44.22614" lon="5.41201">
        <ele>816.18</ele>
        <time>2020-03-15T13:15:24Z</time>
      </trkpt>
      <trkpt lat="44.22604" lon="5.41176">
        <ele>819.31</ele>
        <time>2020-03-15T13:15:42Z</time>
      </trkpt>
      <trkpt lat="44.22598" lon="5.41154">
        <ele>822.14</ele>
        <time>2020-03-15T13:15:56Z</time>
      </trkpt>
      <trkpt lat="44.22596" lon="5.41149">
        <ele>822.38</ele>
        <time>2020-03-15T13:15:59Z</time>
      </trkpt>
      <trkpt lat="44.22594" lon="5.41116">
        <ele>824.77</ele>
        <time>2020-03-15T13:16:19Z</time>
      </trkpt>
      <trkpt lat="44.22608" lon="5.41086">
        <ele>824.73</ele>
        <time>2020-03-15T13:16:37Z</time>
      </trkpt>
    </trkseg>
  </trk>
  <trk>
    <name><![CDATA[La Jas _Col de la Bohémienne_Le Devès_Aulan_2]]></name>
    <trkseg>
      <trkpt lat="44.22608" lon="5.41086">
        <ele>824.73</ele>
        <time>2020-03-15T13:16:37Z</time>
      </trkpt>
      <trkpt lat="44.2262" lon="5.41054">
        <ele>823.9</ele>
        <time>2020-03-15T13:17:01Z</time>
      </trkpt>
      <trkpt lat="44.22626" lon="5.41049">
        <ele>824.07</ele>
        <time>2020-03-15T13:17:05Z</time>
      </trkpt>
      <trkpt lat="44.22639" lon="5.41017">
        <ele>825.13</ele>
        <time>2020-03-15T13:17:39Z</time>
      </trkpt>
      <trkpt lat="44.22647" lon="5.40996">
        <ele>826.58</ele>
        <time>2020-03-15T13:17:57Z</time>
      </trkpt>
      <trkpt lat="44.2265" lon="5.40982">
        <ele>826.44</ele>
        <time>2020-03-15T13:18:06Z</time>
      </trkpt>
      <trkpt lat="44.22649" lon="5.40945">
        <ele>829.42</ele>
        <time>2020-03-15T13:18:34Z</time>
      </trkpt>
      <trkpt lat="44.22654" lon="5.40926">
        <ele>832.47</ele>
        <time>2020-03-15T13:18:53Z</time>
      </trkpt>
      <trkpt lat="44.22687" lon="5.40886">
        <ele>834.85</ele>
        <time>2020-03-15T13:19:19Z</time>
      </trkpt>
      <trkpt lat="44.22706" lon="5.40862">
        <ele>837.33</ele>
        <time>2020-03-15T13:19:47Z</time>
      </trkpt>
      <trkpt lat="44.22707" lon="5.40861">
        <ele>837.28</ele>
        <time>2020-03-15T13:19:48Z</time>
      </trkpt>
      <trkpt lat="44.22724" lon="5.40839">
        <ele>837.91</ele>
        <time>2020-03-15T13:20:10Z</time>
      </trkpt>
      <trkpt lat="44.22733" lon="5.40825">
        <ele>838.96</ele>
        <time>2020-03-15T13:20:33Z</time>
      </trkpt>
      <trkpt lat="44.22734" lon="5.40822">
        <ele>838.44</ele>
        <time>2020-03-15T13:20:47Z</time>
      </trkpt>
      <trkpt lat="44.22736" lon="5.4082">
        <ele>838.26</ele>
        <time>2020-03-15T13:20:49Z</time>
      </trkpt>
      <trkpt lat="44.22747" lon="5.40792">
        <ele>839.13</ele>
        <time>2020-03-15T13:21:16Z</time>
      </trkpt>
      <trkpt lat="44.22747" lon="5.40792">
        <ele>838.99</ele>
        <time>2020-03-15T13:21:17Z</time>
      </trkpt>
      <trkpt lat="44.2276" lon="5.4077">
        <ele>840.41</ele>
        <time>2020-03-15T13:21:38Z</time>
      </trkpt>
      <trkpt lat="44.22778" lon="5.40737">
        <ele>842.13</ele>
        <time>2020-03-15T13:22:03Z</time>
      </trkpt>
      <trkpt lat="44.22783" lon="5.40699">
        <ele>841.41</ele>
        <time>2020-03-15T13:22:27Z</time>
      </trkpt>
      <trkpt lat="44.22786" lon="5.40679">
        <ele>842.31</ele>
        <time>2020-03-15T13:22:39Z</time>
      </trkpt>
      <trkpt lat="44.22788" lon="5.4067">
        <ele>842.53</ele>
        <time>2020-03-15T13:22:45Z</time>
      </trkpt>
      <trkpt lat="44.22791" lon="5.40657">
        <ele>842.12</ele>
        <time>2020-03-15T13:23:14Z</time>
      </trkpt>
      <trkpt lat="44.22792" lon="5.40653">
        <ele>842.95</ele>
        <time>2020-03-15T13:23:24Z</time>
      </trkpt>
      <trkpt lat="44.22795" lon="5.40652">
        <ele>842.89</ele>
        <time>2020-03-15T13:23:28Z</time>
      </trkpt>
      <trkpt lat="44.22804" lon="5.40642">
        <ele>843.58</ele>
        <time>2020-03-15T13:23:40Z</time>
      </trkpt>
      <trkpt lat="44.22809" lon="5.40634">
        <ele>844.83</ele>
        <time>2020-03-15T13:23:47Z</time>
      </trkpt>
      <trkpt lat="44.22824" lon="5.40619">
        <ele>848.18</ele>
        <time>2020-03-15T13:24:02Z</time>
      </trkpt>
      <trkpt lat="44.2284" lon="5.4061">
        <ele>851.36</ele>
        <time>2020-03-15T13:24:17Z</time>
      </trkpt>
      <trkpt lat="44.22863" lon="5.40602">
        <ele>852.84</ele>
        <time>2020-03-15T13:24:35Z</time>
      </trkpt>
      <trkpt lat="44.22877" lon="5.40583">
        <ele>853.27</ele>
        <time>2020-03-15T13:24:51Z</time>
      </trkpt>
      <trkpt lat="44.22883" lon="5.40572">
        <ele>854.12</ele>
        <time>2020-03-15T13:25:08Z</time>
      </trkpt>
      <trkpt lat="44.22886" lon="5.40567">
        <ele>853.7</ele>
        <time>2020-03-15T13:25:31Z</time>
      </trkpt>
      <trkpt lat="44.22907" lon="5.40531">
        <ele>855.87</ele>
        <time>2020-03-15T13:26:00Z</time>
      </trkpt>
      <trkpt lat="44.22946" lon="5.40503">
        <ele>854.83</ele>
        <time>2020-03-15T13:26:34Z</time>
      </trkpt>
      <trkpt lat="44.22976" lon="5.40467">
        <ele>852.95</ele>
        <time>2020-03-15T13:27:05Z</time>
      </trkpt>
      <trkpt lat="44.2299" lon="5.40435">
        <ele>851.09</ele>
        <time>2020-03-15T13:27:26Z</time>
      </trkpt>
      <trkpt lat="44.23006" lon="5.40404">
        <ele>852.63</ele>
        <time>2020-03-15T13:27:47Z</time>
      </trkpt>
      <trkpt lat="44.23017" lon="5.40351">
        <ele>853.75</ele>
        <time>2020-03-15T13:28:17Z</time>
      </trkpt>
      <trkpt lat="44.23018" lon="5.40343">
        <ele>854.3</ele>
        <time>2020-03-15T13:28:22Z</time>
      </trkpt>
      <trkpt lat="44.2302" lon="5.4034">
        <ele>854.04</ele>
        <time>2020-03-15T13:28:25Z</time>
      </trkpt>
      <trkpt lat="44.23048" lon="5.40325">
        <ele>856.8</ele>
        <time>2020-03-15T13:28:48Z</time>
      </trkpt>
      <trkpt lat="44.23078" lon="5.40311">
        <ele>855.53</ele>
        <time>2020-03-15T13:29:12Z</time>
      </trkpt>
      <trkpt lat="44.23107" lon="5.40301">
        <ele>854.55</ele>
        <time>2020-03-15T13:29:35Z</time>
      </trkpt>
      <trkpt lat="44.2313" lon="5.40287">
        <ele>854.53</ele>
        <time>2020-03-15T13:29:56Z</time>
      </trkpt>
      <trkpt lat="44.23138" lon="5.40271">
        <ele>854.83</ele>
        <time>2020-03-15T13:30:09Z</time>
      </trkpt>
      <trkpt lat="44.23146" lon="5.40256">
        <ele>854.75</ele>
        <time>2020-03-15T13:30:19Z</time>
      </trkpt>
      <trkpt lat="44.23161" lon="5.4024">
        <ele>854.18</ele>
        <time>2020-03-15T13:30:35Z</time>
      </trkpt>
      <trkpt lat="44.23165" lon="5.40237">
        <ele>854.63</ele>
        <time>2020-03-15T13:30:38Z</time>
      </trkpt>
      <trkpt lat="44.2318" lon="5.40208">
        <ele>854.74</ele>
        <time>2020-03-15T13:30:58Z</time>
      </trkpt>
      <trkpt lat="44.23194" lon="5.40182">
        <ele>855.17</ele>
        <time>2020-03-15T13:31:20Z</time>
      </trkpt>
      <trkpt lat="44.23212" lon="5.40159">
        <ele>856.75</ele>
        <time>2020-03-15T13:31:40Z</time>
      </trkpt>
      <trkpt lat="44.23213" lon="5.40153">
        <ele>856.85</ele>
        <time>2020-03-15T13:31:43Z</time>
      </trkpt>
      <trkpt lat="44.23215" lon="5.40146">
        <ele>857</ele>
        <time>2020-03-15T13:31:45Z</time>
      </trkpt>
      <trkpt lat="44.23218" lon="5.4014">
        <ele>857.7</ele>
        <time>2020-03-15T13:31:50Z</time>
      </trkpt>
      <trkpt lat="44.2322" lon="5.4013">
        <ele>858.01</ele>
        <time>2020-03-15T13:31:57Z</time>
      </trkpt>
      <trkpt lat="44.23238" lon="5.40094">
        <ele>858.32</ele>
        <time>2020-03-15T13:32:20Z</time>
      </trkpt>
      <trkpt lat="44.23252" lon="5.40058">
        <ele>860.42</ele>
        <time>2020-03-15T13:32:40Z</time>
      </trkpt>
      <trkpt lat="44.23253" lon="5.40047">
        <ele>860.14</ele>
        <time>2020-03-15T13:32:47Z</time>
      </trkpt>
      <trkpt lat="44.23257" lon="5.40036">
        <ele>860.7</ele>
        <time>2020-03-15T13:32:54Z</time>
      </trkpt>
      <trkpt lat="44.23264" lon="5.40031">
        <ele>861.04</ele>
        <time>2020-03-15T13:33:03Z</time>
      </trkpt>
      <trkpt lat="44.23277" lon="5.40017">
        <ele>861.62</ele>
        <time>2020-03-15T13:33:23Z</time>
      </trkpt>
      <trkpt lat="44.23294" lon="5.39991">
        <ele>863.78</ele>
        <time>2020-03-15T13:33:44Z</time>
      </trkpt>
      <trkpt lat="44.23295" lon="5.3999">
        <ele>863.88</ele>
        <time>2020-03-15T13:33:45Z</time>
      </trkpt>
      <trkpt lat="44.23301" lon="5.39977">
        <ele>863.65</ele>
        <time>2020-03-15T13:33:54Z</time>
      </trkpt>
      <trkpt lat="44.23309" lon="5.39968">
        <ele>865.17</ele>
        <time>2020-03-15T13:34:02Z</time>
      </trkpt>
      <trkpt lat="44.23311" lon="5.39967">
        <ele>865.42</ele>
        <time>2020-03-15T13:34:04Z</time>
      </trkpt>
      <trkpt lat="44.23319" lon="5.39958">
        <ele>866.04</ele>
        <time>2020-03-15T13:34:13Z</time>
      </trkpt>
      <trkpt lat="44.2333" lon="5.39946">
        <ele>866.11</ele>
        <time>2020-03-15T13:34:26Z</time>
      </trkpt>
      <trkpt lat="44.23331" lon="5.39944">
        <ele>866.18</ele>
        <time>2020-03-15T13:34:28Z</time>
      </trkpt>
      <trkpt lat="44.2335" lon="5.39908">
        <ele>868.58</ele>
        <time>2020-03-15T13:34:53Z</time>
      </trkpt>
      <trkpt lat="44.23365" lon="5.39882">
        <ele>869.92</ele>
        <time>2020-03-15T13:35:14Z</time>
      </trkpt>
      <trkpt lat="44.23376" lon="5.39867">
        <ele>869.63</ele>
        <time>2020-03-15T13:35:39Z</time>
      </trkpt>
      <trkpt lat="44.23397" lon="5.39844">
        <ele>871.12</ele>
        <time>2020-03-15T13:36:09Z</time>
      </trkpt>
      <trkpt lat="44.23415" lon="5.39814">
        <ele>873.75</ele>
        <time>2020-03-15T13:36:36Z</time>
      </trkpt>
      <trkpt lat="44.2342" lon="5.39813">
        <ele>874.04</ele>
        <time>2020-03-15T13:36:39Z</time>
      </trkpt>
      <trkpt lat="44.2343" lon="5.39808">
        <ele>874.86</ele>
        <time>2020-03-15T13:37:05Z</time>
      </trkpt>
      <trkpt lat="44.23441" lon="5.39805">
        <ele>877.29</ele>
        <time>2020-03-15T13:37:35Z</time>
      </trkpt>
      <trkpt lat="44.23442" lon="5.39804">
        <ele>877.25</ele>
        <time>2020-03-15T13:37:36Z</time>
      </trkpt>
      <trkpt lat="44.23447" lon="5.39803">
        <ele>876.97</ele>
        <time>2020-03-15T13:37:41Z</time>
      </trkpt>
      <trkpt lat="44.23469" lon="5.39786">
        <ele>879.2</ele>
        <time>2020-03-15T13:38:04Z</time>
      </trkpt>
      <trkpt lat="44.23475" lon="5.39773">
        <ele>882.44</ele>
        <time>2020-03-15T13:38:17Z</time>
      </trkpt>
      <trkpt lat="44.23477" lon="5.3977">
        <ele>883.02</ele>
        <time>2020-03-15T13:38:20Z</time>
      </trkpt>
      <trkpt lat="44.23482" lon="5.39756">
        <ele>884.01</ele>
        <time>2020-03-15T13:38:32Z</time>
      </trkpt>
      <trkpt lat="44.2349" lon="5.39728">
        <ele>887.56</ele>
        <time>2020-03-15T13:38:56Z</time>
      </trkpt>
      <trkpt lat="44.23491" lon="5.39721">
        <ele>887.76</ele>
        <time>2020-03-15T13:39:02Z</time>
      </trkpt>
      <trkpt lat="44.23498" lon="5.39692">
        <ele>888.56</ele>
        <time>2020-03-15T13:39:21Z</time>
      </trkpt>
      <trkpt lat="44.23501" lon="5.39679">
        <ele>888.6</ele>
        <time>2020-03-15T13:39:29Z</time>
      </trkpt>
      <trkpt lat="44.23504" lon="5.39667">
        <ele>889.28</ele>
        <time>2020-03-15T13:39:39Z</time>
      </trkpt>
      <trkpt lat="44.23513" lon="5.39659">
        <ele>889.75</ele>
        <time>2020-03-15T13:39:49Z</time>
      </trkpt>
      <trkpt lat="44.23519" lon="5.39654">
        <ele>890.43</ele>
        <time>2020-03-15T13:39:56Z</time>
      </trkpt>
      <trkpt lat="44.23524" lon="5.3965">
        <ele>891.66</ele>
        <time>2020-03-15T13:40:00Z</time>
      </trkpt>
      <trkpt lat="44.23538" lon="5.3964">
        <ele>894.91</ele>
        <time>2020-03-15T13:40:18Z</time>
      </trkpt>
      <trkpt lat="44.23543" lon="5.39628">
        <ele>896.26</ele>
        <time>2020-03-15T13:40:27Z</time>
      </trkpt>
      <trkpt lat="44.23553" lon="5.39603">
        <ele>898.81</ele>
        <time>2020-03-15T13:40:49Z</time>
      </trkpt>
      <trkpt lat="44.23555" lon="5.39586">
        <ele>900.5</ele>
        <time>2020-03-15T13:41:04Z</time>
      </trkpt>
      <trkpt lat="44.2355" lon="5.39559">
        <ele>903.66</ele>
        <time>2020-03-15T13:41:24Z</time>
      </trkpt>
      <trkpt lat="44.23555" lon="5.39525">
        <ele>904.18</ele>
        <time>2020-03-15T13:41:44Z</time>
      </trkpt>
      <trkpt lat="44.23555" lon="5.39523">
        <ele>904.29</ele>
        <time>2020-03-15T13:41:45Z</time>
      </trkpt>
      <trkpt lat="44.23559" lon="5.39508">
        <ele>903.92</ele>
        <time>2020-03-15T13:41:54Z</time>
      </trkpt>
      <trkpt lat="44.23567" lon="5.39491">
        <ele>906.31</ele>
        <time>2020-03-15T13:42:13Z</time>
      </trkpt>
      <trkpt lat="44.23571" lon="5.39492">
        <ele>906.08</ele>
        <time>2020-03-15T13:42:38Z</time>
      </trkpt>
      <trkpt lat="44.23583" lon="5.39489">
        <ele>905.94</ele>
        <time>2020-03-15T13:43:07Z</time>
      </trkpt>
      <trkpt lat="44.23598" lon="5.3948">
        <ele>908.69</ele>
        <time>2020-03-15T13:43:24Z</time>
      </trkpt>
      <trkpt lat="44.23605" lon="5.39473">
        <ele>910.98</ele>
        <time>2020-03-15T13:43:33Z</time>
      </trkpt>
      <trkpt lat="44.2362" lon="5.39456">
        <ele>913.48</ele>
        <time>2020-03-15T13:43:51Z</time>
      </trkpt>
      <trkpt lat="44.23634" lon="5.39448">
        <ele>912.98</ele>
        <time>2020-03-15T13:44:04Z</time>
      </trkpt>
      <trkpt lat="44.23635" lon="5.39445">
        <ele>913.47</ele>
        <time>2020-03-15T13:44:07Z</time>
      </trkpt>
      <trkpt lat="44.23642" lon="5.39436">
        <ele>913.09</ele>
        <time>2020-03-15T13:44:21Z</time>
      </trkpt>
      <trkpt lat="44.23649" lon="5.39429">
        <ele>913.27</ele>
        <time>2020-03-15T13:44:31Z</time>
      </trkpt>
      <trkpt lat="44.23657" lon="5.3942">
        <ele>914.73</ele>
        <time>2020-03-15T13:44:41Z</time>
      </trkpt>
      <trkpt lat="44.23661" lon="5.39417">
        <ele>915.62</ele>
        <time>2020-03-15T13:44:46Z</time>
      </trkpt>
      <trkpt lat="44.23669" lon="5.39412">
        <ele>917.18</ele>
        <time>2020-03-15T13:44:54Z</time>
      </trkpt>
      <trkpt lat="44.23671" lon="5.39411">
        <ele>916.51</ele>
        <time>2020-03-15T13:44:56Z</time>
      </trkpt>
      <trkpt lat="44.23679" lon="5.39409">
        <ele>918.28</ele>
        <time>2020-03-15T13:45:05Z</time>
      </trkpt>
      <trkpt lat="44.23685" lon="5.39406">
        <ele>918.17</ele>
        <time>2020-03-15T13:45:10Z</time>
      </trkpt>
      <trkpt lat="44.23699" lon="5.39393">
        <ele>921.38</ele>
        <time>2020-03-15T13:45:25Z</time>
      </trkpt>
      <trkpt lat="44.23714" lon="5.39382">
        <ele>924.81</ele>
        <time>2020-03-15T13:45:41Z</time>
      </trkpt>
      <trkpt lat="44.23714" lon="5.39381">
        <ele>925.04</ele>
        <time>2020-03-15T13:45:42Z</time>
      </trkpt>
      <trkpt lat="44.23728" lon="5.39363">
        <ele>928.21</ele>
        <time>2020-03-15T13:46:00Z</time>
      </trkpt>
      <trkpt lat="44.23752" lon="5.39328">
        <ele>931.16</ele>
        <time>2020-03-15T13:46:31Z</time>
      </trkpt>
      <trkpt lat="44.23752" lon="5.39323">
        <ele>931.44</ele>
        <time>2020-03-15T13:46:56Z</time>
      </trkpt>
      <trkpt lat="44.23752" lon="5.39325">
        <ele>930.61</ele>
        <time>2020-03-15T13:47:18Z</time>
      </trkpt>
      <trkpt lat="44.23752" lon="5.39325">
        <ele>931.03</ele>
        <time>2020-03-15T13:48:23Z</time>
      </trkpt>
      <trkpt lat="44.23753" lon="5.39328">
        <ele>932.47</ele>
        <time>2020-03-15T13:49:30Z</time>
      </trkpt>
      <trkpt lat="44.23753" lon="5.39327">
        <ele>935.35</ele>
        <time>2020-03-15T13:51:00Z</time>
      </trkpt>
      <trkpt lat="44.23753" lon="5.39327">
        <ele>932.25</ele>
        <time>2020-03-15T13:51:03Z</time>
      </trkpt>
      <trkpt lat="44.23746" lon="5.39322">
        <ele>935.48</ele>
        <time>2020-03-15T13:51:14Z</time>
      </trkpt>
      <trkpt lat="44.23737" lon="5.39309">
        <ele>938.37</ele>
        <time>2020-03-15T13:51:30Z</time>
      </trkpt>
      <trkpt lat="44.23728" lon="5.39299">
        <ele>940.01</ele>
        <time>2020-03-15T13:51:41Z</time>
      </trkpt>
      <trkpt lat="44.23727" lon="5.39296">
        <ele>940.15</ele>
        <time>2020-03-15T13:51:43Z</time>
      </trkpt>
      <trkpt lat="44.23725" lon="5.39294">
        <ele>940.36</ele>
        <time>2020-03-15T13:51:45Z</time>
      </trkpt>
      <trkpt lat="44.23713" lon="5.39291">
        <ele>939.96</ele>
        <time>2020-03-15T13:51:59Z</time>
      </trkpt>
      <trkpt lat="44.23709" lon="5.39292">
        <ele>939.98</ele>
        <time>2020-03-15T13:52:02Z</time>
      </trkpt>
      <trkpt lat="44.23697" lon="5.39291">
        <ele>939.24</ele>
        <time>2020-03-15T13:52:12Z</time>
      </trkpt>
      <trkpt lat="44.23693" lon="5.39284">
        <ele>939.81</ele>
        <time>2020-03-15T13:52:18Z</time>
      </trkpt>
      <trkpt lat="44.23691" lon="5.39285">
        <ele>939.75</ele>
        <time>2020-03-15T13:52:20Z</time>
      </trkpt>
      <trkpt lat="44.23673" lon="5.39284">
        <ele>941.21</ele>
        <time>2020-03-15T13:52:41Z</time>
      </trkpt>
      <trkpt lat="44.23646" lon="5.39275">
        <ele>942.85</ele>
        <time>2020-03-15T13:53:09Z</time>
      </trkpt>
      <trkpt lat="44.23616" lon="5.39275">
        <ele>941.91</ele>
        <time>2020-03-15T13:53:31Z</time>
      </trkpt>
      <trkpt lat="44.23597" lon="5.39284">
        <ele>943.47</ele>
        <time>2020-03-15T13:53:53Z</time>
      </trkpt>
      <trkpt lat="44.23583" lon="5.39292">
        <ele>946.52</ele>
        <time>2020-03-15T13:54:10Z</time>
      </trkpt>
      <trkpt lat="44.23563" lon="5.39297">
        <ele>945.93</ele>
        <time>2020-03-15T13:54:33Z</time>
      </trkpt>
      <trkpt lat="44.23542" lon="5.39299">
        <ele>948.44</ele>
        <time>2020-03-15T13:54:56Z</time>
      </trkpt>
      <trkpt lat="44.23532" lon="5.39291">
        <ele>951.52</ele>
        <time>2020-03-15T13:55:11Z</time>
      </trkpt>
      <trkpt lat="44.23525" lon="5.39291">
        <ele>954.56</ele>
        <time>2020-03-15T13:55:28Z</time>
      </trkpt>
      <trkpt lat="44.2352" lon="5.3928">
        <ele>957.74</ele>
        <time>2020-03-15T13:55:49Z</time>
      </trkpt>
      <trkpt lat="44.23518" lon="5.39269">
        <ele>959.8</ele>
        <time>2020-03-15T13:56:03Z</time>
      </trkpt>
      <trkpt lat="44.23517" lon="5.39256">
        <ele>963.01</ele>
        <time>2020-03-15T13:56:21Z</time>
      </trkpt>
      <trkpt lat="44.23517" lon="5.39239">
        <ele>966.14</ele>
        <time>2020-03-15T13:56:41Z</time>
      </trkpt>
      <trkpt lat="44.23514" lon="5.39227">
        <ele>969.28</ele>
        <time>2020-03-15T13:56:57Z</time>
      </trkpt>
      <trkpt lat="44.23511" lon="5.39206">
        <ele>972.3</ele>
        <time>2020-03-15T13:57:14Z</time>
      </trkpt>
      <trkpt lat="44.23511" lon="5.39175">
        <ele>975.44</ele>
        <time>2020-03-15T13:57:32Z</time>
      </trkpt>
      <trkpt lat="44.23509" lon="5.3916">
        <ele>976.48</ele>
        <time>2020-03-15T13:58:05Z</time>
      </trkpt>
      <trkpt lat="44.23509" lon="5.39149">
        <ele>976.12</ele>
        <time>2020-03-15T13:58:12Z</time>
      </trkpt>
      <trkpt lat="44.23507" lon="5.39125">
        <ele>979.12</ele>
        <time>2020-03-15T13:58:32Z</time>
      </trkpt>
      <trkpt lat="44.23508" lon="5.39111">
        <ele>980.23</ele>
        <time>2020-03-15T13:58:41Z</time>
      </trkpt>
      <trkpt lat="44.23511" lon="5.39083">
        <ele>983.3</ele>
        <time>2020-03-15T13:59:00Z</time>
      </trkpt>
      <trkpt lat="44.23511" lon="5.39078">
        <ele>983.73</ele>
        <time>2020-03-15T13:59:04Z</time>
      </trkpt>
      <trkpt lat="44.23512" lon="5.39053">
        <ele>987.07</ele>
        <time>2020-03-15T13:59:23Z</time>
      </trkpt>
      <trkpt lat="44.23512" lon="5.39046">
        <ele>988.1</ele>
        <time>2020-03-15T13:59:29Z</time>
      </trkpt>
      <trkpt lat="44.2351" lon="5.39032">
        <ele>990.1</ele>
        <time>2020-03-15T13:59:39Z</time>
      </trkpt>
      <trkpt lat="44.2351" lon="5.3901">
        <ele>992.77</ele>
        <time>2020-03-15T13:59:54Z</time>
      </trkpt>
      <trkpt lat="44.23514" lon="5.38978">
        <ele>996.17</ele>
        <time>2020-03-15T14:00:15Z</time>
      </trkpt>
      <trkpt lat="44.23517" lon="5.38974">
        <ele>997.06</ele>
        <time>2020-03-15T14:00:20Z</time>
      </trkpt>
      <trkpt lat="44.23519" lon="5.38973">
        <ele>997.26</ele>
        <time>2020-03-15T14:00:22Z</time>
      </trkpt>
      <trkpt lat="44.23524" lon="5.3897">
        <ele>997.93</ele>
        <time>2020-03-15T14:00:27Z</time>
      </trkpt>
      <trkpt lat="44.23537" lon="5.38956">
        <ele>1001.13</ele>
        <time>2020-03-15T14:00:44Z</time>
      </trkpt>
      <trkpt lat="44.23547" lon="5.38933">
        <ele>1004.18</ele>
        <time>2020-03-15T14:01:04Z</time>
      </trkpt>
      <trkpt lat="44.23554" lon="5.38909">
        <ele>1007.44</ele>
        <time>2020-03-15T14:01:21Z</time>
      </trkpt>
      <trkpt lat="44.23568" lon="5.38874">
        <ele>1009.33</ele>
        <time>2020-03-15T14:01:48Z</time>
      </trkpt>
      <trkpt lat="44.23576" lon="5.38861">
        <ele>1010.37</ele>
        <time>2020-03-15T14:02:12Z</time>
      </trkpt>
      <trkpt lat="44.23576" lon="5.38861">
        <ele>1010.17</ele>
        <time>2020-03-15T14:02:45Z</time>
      </trkpt>
      <trkpt lat="44.2358" lon="5.38853">
        <ele>1011.58</ele>
        <time>2020-03-15T14:03:31Z</time>
      </trkpt>
      <trkpt lat="44.23583" lon="5.38838">
        <ele>1014.76</ele>
        <time>2020-03-15T14:03:44Z</time>
      </trkpt>
      <trkpt lat="44.23584" lon="5.38836">
        <ele>1015.43</ele>
        <time>2020-03-15T14:03:47Z</time>
      </trkpt>
      <trkpt lat="44.23589" lon="5.38833">
        <ele>1015.8</ele>
        <time>2020-03-15T14:03:51Z</time>
      </trkpt>
      <trkpt lat="44.23605" lon="5.38804">
        <ele>1018.13</ele>
        <time>2020-03-15T14:04:18Z</time>
      </trkpt>
      <trkpt lat="44.23613" lon="5.38781">
        <ele>1021.2</ele>
        <time>2020-03-15T14:04:40Z</time>
      </trkpt>
      <trkpt lat="44.23616" lon="5.38762">
        <ele>1023.5</ele>
        <time>2020-03-15T14:04:54Z</time>
      </trkpt>
      <trkpt lat="44.23617" lon="5.38758">
        <ele>1023.93</ele>
        <time>2020-03-15T14:04:56Z</time>
      </trkpt>
      <trkpt lat="44.23622" lon="5.38734">
        <ele>1024.94</ele>
        <time>2020-03-15T14:05:15Z</time>
      </trkpt>
      <trkpt lat="44.2362" lon="5.38711">
        <ele>1027.98</ele>
        <time>2020-03-15T14:05:37Z</time>
      </trkpt>
      <trkpt lat="44.2362" lon="5.38705">
        <ele>1027.91</ele>
        <time>2020-03-15T14:05:41Z</time>
      </trkpt>
      <trkpt lat="44.23622" lon="5.38691">
        <ele>1028.06</ele>
        <time>2020-03-15T14:05:52Z</time>
      </trkpt>
      <trkpt lat="44.23618" lon="5.38657">
        <ele>1030.33</ele>
        <time>2020-03-15T14:06:16Z</time>
      </trkpt>
      <trkpt lat="44.23616" lon="5.38644">
        <ele>1031.22</ele>
        <time>2020-03-15T14:06:24Z</time>
      </trkpt>
      <trkpt lat="44.23609" lon="5.38621">
        <ele>1033.71</ele>
        <time>2020-03-15T14:06:42Z</time>
      </trkpt>
      <trkpt lat="44.23599" lon="5.38578">
        <ele>1036.99</ele>
        <time>2020-03-15T14:07:06Z</time>
      </trkpt>
      <trkpt lat="44.23591" lon="5.38565">
        <ele>1037.33</ele>
        <time>2020-03-15T14:07:30Z</time>
      </trkpt>
      <trkpt lat="44.23586" lon="5.3855">
        <ele>1038.29</ele>
        <time>2020-03-15T14:08:13Z</time>
      </trkpt>
      <trkpt lat="44.23575" lon="5.38511">
        <ele>1040.22</ele>
        <time>2020-03-15T14:08:40Z</time>
      </trkpt>
      <trkpt lat="44.23565" lon="5.38462">
        <ele>1041.97</ele>
        <time>2020-03-15T14:09:10Z</time>
      </trkpt>
      <trkpt lat="44.23558" lon="5.38408">
        <ele>1043.95</ele>
        <time>2020-03-15T14:09:42Z</time>
      </trkpt>
      <trkpt lat="44.23557" lon="5.38362">
        <ele>1045.99</ele>
        <time>2020-03-15T14:10:13Z</time>
      </trkpt>
      <trkpt lat="44.23558" lon="5.3836">
        <ele>1045.84</ele>
        <time>2020-03-15T14:10:26Z</time>
      </trkpt>
      <trkpt lat="44.2356" lon="5.38353">
        <ele>1046.44</ele>
        <time>2020-03-15T14:10:31Z</time>
      </trkpt>
      <trkpt lat="44.23561" lon="5.38351">
        <ele>1046.5</ele>
        <time>2020-03-15T14:10:33Z</time>
      </trkpt>
      <trkpt lat="44.23564" lon="5.38339">
        <ele>1046.62</ele>
        <time>2020-03-15T14:10:40Z</time>
      </trkpt>
      <trkpt lat="44.23566" lon="5.38332">
        <ele>1046.9</ele>
        <time>2020-03-15T14:10:44Z</time>
      </trkpt>
      <trkpt lat="44.23582" lon="5.38297">
        <ele>1047.18</ele>
        <time>2020-03-15T14:11:06Z</time>
      </trkpt>
      <trkpt lat="44.23594" lon="5.38266">
        <ele>1048.27</ele>
        <time>2020-03-15T14:11:26Z</time>
      </trkpt>
      <trkpt lat="44.23605" lon="5.38236">
        <ele>1048.7</ele>
        <time>2020-03-15T14:11:45Z</time>
      </trkpt>
      <trkpt lat="44.23616" lon="5.38201">
        <ele>1049.25</ele>
        <time>2020-03-15T14:12:06Z</time>
      </trkpt>
      <trkpt lat="44.23629" lon="5.38165">
        <ele>1049.51</ele>
        <time>2020-03-15T14:12:28Z</time>
      </trkpt>
      <trkpt lat="44.2363" lon="5.3816">
        <ele>1049.67</ele>
        <time>2020-03-15T14:12:31Z</time>
      </trkpt>
      <trkpt lat="44.23632" lon="5.38153">
        <ele>1050.24</ele>
        <time>2020-03-15T14:12:36Z</time>
      </trkpt>
      <trkpt lat="44.23635" lon="5.38144">
        <ele>1050.12</ele>
        <time>2020-03-15T14:12:42Z</time>
      </trkpt>
      <trkpt lat="44.23649" lon="5.38114">
        <ele>1050.43</ele>
        <time>2020-03-15T14:13:02Z</time>
      </trkpt>
      <trkpt lat="44.23656" lon="5.38105">
        <ele>1051.05</ele>
        <time>2020-03-15T14:13:09Z</time>
      </trkpt>
      <trkpt lat="44.23668" lon="5.38067">
        <ele>1054.97</ele>
        <time>2020-03-15T14:15:29Z</time>
      </trkpt>
      <trkpt lat="44.23668" lon="5.38067">
        <ele>1056.18</ele>
        <time>2020-03-15T14:16:24Z</time>
      </trkpt>
      <trkpt lat="44.23669" lon="5.38068">
        <ele>1054.93</ele>
        <time>2020-03-15T14:17:07Z</time>
      </trkpt>
      <trkpt lat="44.23672" lon="5.38043">
        <ele>1054.61</ele>
        <time>2020-03-15T14:19:06Z</time>
      </trkpt>
      <trkpt lat="44.23673" lon="5.3804">
        <ele>1054</ele>
        <time>2020-03-15T14:19:09Z</time>
      </trkpt>
      <trkpt lat="44.23674" lon="5.38028">
        <ele>1053.72</ele>
        <time>2020-03-15T14:19:16Z</time>
      </trkpt>
      <trkpt lat="44.23676" lon="5.37991">
        <ele>1054.4</ele>
        <time>2020-03-15T14:19:37Z</time>
      </trkpt>
      <trkpt lat="44.23674" lon="5.37985">
        <ele>1055.27</ele>
        <time>2020-03-15T14:19:41Z</time>
      </trkpt>
      <trkpt lat="44.23654" lon="5.37959">
        <ele>1053.61</ele>
        <time>2020-03-15T14:20:05Z</time>
      </trkpt>
      <trkpt lat="44.23636" lon="5.37935">
        <ele>1055.67</ele>
        <time>2020-03-15T14:20:29Z</time>
      </trkpt>
      <trkpt lat="44.23635" lon="5.37934">
        <ele>1055.77</ele>
        <time>2020-03-15T14:20:30Z</time>
      </trkpt>
      <trkpt lat="44.23622" lon="5.37925">
        <ele>1058.22</ele>
        <time>2020-03-15T14:20:44Z</time>
      </trkpt>
      <trkpt lat="44.23606" lon="5.37897">
        <ele>1060.84</ele>
        <time>2020-03-15T14:21:07Z</time>
      </trkpt>
      <trkpt lat="44.23594" lon="5.37869">
        <ele>1063.9</ele>
        <time>2020-03-15T14:21:24Z</time>
      </trkpt>
      <trkpt lat="44.23587" lon="5.37836">
        <ele>1067.17</ele>
        <time>2020-03-15T14:21:46Z</time>
      </trkpt>
      <trkpt lat="44.23576" lon="5.37806">
        <ele>1069.95</ele>
        <time>2020-03-15T14:22:07Z</time>
      </trkpt>
      <trkpt lat="44.23565" lon="5.37788">
        <ele>1073.11</ele>
        <time>2020-03-15T14:22:24Z</time>
      </trkpt>
      <trkpt lat="44.23553" lon="5.37773">
        <ele>1075.85</ele>
        <time>2020-03-15T14:22:42Z</time>
      </trkpt>
      <trkpt lat="44.23541" lon="5.37748">
        <ele>1078.95</ele>
        <time>2020-03-15T14:23:02Z</time>
      </trkpt>
      <trkpt lat="44.23535" lon="5.3773">
        <ele>1082.1</ele>
        <time>2020-03-15T14:23:17Z</time>
      </trkpt>
      <trkpt lat="44.23516" lon="5.37714">
        <ele>1085.29</ele>
        <time>2020-03-15T14:23:34Z</time>
      </trkpt>
      <trkpt lat="44.2351" lon="5.37717">
        <ele>1086.13</ele>
        <time>2020-03-15T14:23:39Z</time>
      </trkpt>
      <trkpt lat="44.23499" lon="5.37727">
        <ele>1087.54</ele>
        <time>2020-03-15T14:23:53Z</time>
      </trkpt>
      <trkpt lat="44.23493" lon="5.37735">
        <ele>1088.55</ele>
        <time>2020-03-15T14:24:28Z</time>
      </trkpt>
    </trkseg>
  </trk>
  <trk>
    <name><![CDATA[La Jas _Col de la Bohémienne_Le Devès_Aulan_3]]></name>
    <trkseg>
      <trkpt lat="44.23493" lon="5.37735">
        <ele>1088.55</ele>
        <time>2020-03-15T14:24:28Z</time>
      </trkpt>
      <trkpt lat="44.23492" lon="5.37734">
        <ele>1088.58</ele>
        <time>2020-03-15T14:24:56Z</time>
      </trkpt>
      <trkpt lat="44.23492" lon="5.37733">
        <ele>1088.76</ele>
        <time>2020-03-15T14:25:39Z</time>
      </trkpt>
      <trkpt lat="44.23491" lon="5.37736">
        <ele>1089.42</ele>
        <time>2020-03-15T14:26:24Z</time>
      </trkpt>
      <trkpt lat="44.23491" lon="5.37736">
        <ele>1089.16</ele>
        <time>2020-03-15T14:26:52Z</time>
      </trkpt>
      <trkpt lat="44.23492" lon="5.37734">
        <ele>1089.11</ele>
        <time>2020-03-15T14:27:38Z</time>
      </trkpt>
    </trkseg>
  </trk>
</gpx>